<?xml version="1.0" encoding="UTF-8" standalone="no" ?>
<gpx xmlns="http://www.topografix.com/GPX/1/1" xmlns:xsi="http://www.w3.org/2001/XMLSchema-instance" xsi:schemaLocation="http://www.topografix.com/GPX/1/1 http://www.topografix.com/GPX/1/1/gpx.xsd" version="1.1" creator="VisuGPX - https://www.visugpx.com">
  <metadata>
    <name>lyon montelimar</name>
    <desc><![CDATA[Lyon montélimard par la via rhona]]></desc>
  </metadata>
  <trk>
    <name><![CDATA[20180415225359-J2UR7]]></name>
    <trkseg>
      <trkpt lat="45.31881" lon="4.76821">
        <ele>138</ele>
        <time>2013-04-23T14:55:19Z</time>
      </trkpt>
      <trkpt lat="45.31878" lon="4.76837">
        <ele>139</ele>
        <time>2013-04-23T14:55:20Z</time>
      </trkpt>
      <trkpt lat="45.31872" lon="4.76849">
        <ele>139</ele>
        <time>2013-04-23T14:55:21Z</time>
      </trkpt>
      <trkpt lat="45.31868" lon="4.7686">
        <ele>139</ele>
        <time>2013-04-23T14:55:25Z</time>
      </trkpt>
      <trkpt lat="45.31858" lon="4.76872">
        <ele>139</ele>
        <time>2013-04-23T14:55:32Z</time>
      </trkpt>
      <trkpt lat="45.31841" lon="4.76887">
        <ele>139</ele>
        <time>2013-04-23T14:55:40Z</time>
      </trkpt>
      <trkpt lat="45.31833" lon="4.76902">
        <ele>139</ele>
        <time>2013-04-23T14:55:46Z</time>
      </trkpt>
      <trkpt lat="45.31824" lon="4.76918">
        <ele>138</ele>
        <time>2013-04-23T14:55:51Z</time>
      </trkpt>
      <trkpt lat="45.31809" lon="4.76946">
        <ele>137</ele>
        <time>2013-04-23T14:55:58Z</time>
      </trkpt>
      <trkpt lat="45.31781" lon="4.77">
        <ele>136</ele>
        <time>2013-04-23T14:56:58Z</time>
      </trkpt>
      <trkpt lat="45.31773" lon="4.77017">
        <ele>136</ele>
        <time>2013-04-23T14:57:04Z</time>
      </trkpt>
      <trkpt lat="45.31758" lon="4.77041">
        <ele>136</ele>
        <time>2013-04-23T14:57:11Z</time>
      </trkpt>
      <trkpt lat="45.31741" lon="4.77072">
        <ele>136</ele>
        <time>2013-04-23T14:57:18Z</time>
      </trkpt>
      <trkpt lat="45.3172" lon="4.77109">
        <ele>136</ele>
        <time>2013-04-23T14:57:27Z</time>
      </trkpt>
      <trkpt lat="45.31706" lon="4.7713">
        <ele>136</ele>
        <time>2013-04-23T14:57:32Z</time>
      </trkpt>
      <trkpt lat="45.31703" lon="4.77134">
        <ele>136</ele>
        <time>2013-04-23T14:57:33Z</time>
      </trkpt>
      <trkpt lat="45.3168" lon="4.77175">
        <ele>136</ele>
        <time>2013-04-23T14:57:42Z</time>
      </trkpt>
      <trkpt lat="45.31664" lon="4.77212">
        <ele>137</ele>
        <time>2013-04-23T14:57:50Z</time>
      </trkpt>
      <trkpt lat="45.31647" lon="4.77243">
        <ele>137</ele>
        <time>2013-04-23T14:57:57Z</time>
      </trkpt>
      <trkpt lat="45.31624" lon="4.77281">
        <ele>137</ele>
        <time>2013-04-23T14:58:05Z</time>
      </trkpt>
      <trkpt lat="45.31599" lon="4.77326">
        <ele>137</ele>
        <time>2013-04-23T14:58:14Z</time>
      </trkpt>
      <trkpt lat="45.31575" lon="4.77367">
        <ele>137</ele>
        <time>2013-04-23T14:58:22Z</time>
      </trkpt>
      <trkpt lat="45.3155" lon="4.7741">
        <ele>137</ele>
        <time>2013-04-23T14:58:30Z</time>
      </trkpt>
      <trkpt lat="45.3152" lon="4.77461">
        <ele>137</ele>
        <time>2013-04-23T14:58:39Z</time>
      </trkpt>
      <trkpt lat="45.31517" lon="4.77467">
        <ele>137</ele>
        <time>2013-04-23T14:58:40Z</time>
      </trkpt>
      <trkpt lat="45.31492" lon="4.7751">
        <ele>137</ele>
        <time>2013-04-23T14:58:48Z</time>
      </trkpt>
      <trkpt lat="45.31428" lon="4.77624">
        <ele>137</ele>
        <time>2013-04-23T14:59:53Z</time>
      </trkpt>
      <trkpt lat="45.31417" lon="4.77643">
        <ele>137</ele>
        <time>2013-04-23T14:59:57Z</time>
      </trkpt>
      <trkpt lat="45.31413" lon="4.77655">
        <ele>137</ele>
        <time>2013-04-23T14:59:59Z</time>
      </trkpt>
      <trkpt lat="45.31397" lon="4.77708">
        <ele>137</ele>
        <time>2013-04-23T15:00:08Z</time>
      </trkpt>
      <trkpt lat="45.31384" lon="4.77752">
        <ele>137</ele>
        <time>2013-04-23T15:00:16Z</time>
      </trkpt>
      <trkpt lat="45.31369" lon="4.77792">
        <ele>137</ele>
        <time>2013-04-23T15:00:25Z</time>
      </trkpt>
      <trkpt lat="45.31365" lon="4.77804">
        <ele>137</ele>
        <time>2013-04-23T15:00:49Z</time>
      </trkpt>
      <trkpt lat="45.31355" lon="4.7782">
        <ele>137</ele>
        <time>2013-04-23T15:00:53Z</time>
      </trkpt>
      <trkpt lat="45.31349" lon="4.77827">
        <ele>137</ele>
        <time>2013-04-23T15:00:55Z</time>
      </trkpt>
      <trkpt lat="45.3134" lon="4.77837">
        <ele>137</ele>
        <time>2013-04-23T15:00:58Z</time>
      </trkpt>
      <trkpt lat="45.31321" lon="4.77853">
        <ele>137</ele>
        <time>2013-04-23T15:01:04Z</time>
      </trkpt>
      <trkpt lat="45.31298" lon="4.77874">
        <ele>137</ele>
        <time>2013-04-23T15:01:12Z</time>
      </trkpt>
      <trkpt lat="45.31296" lon="4.77886">
        <ele>137</ele>
        <time>2013-04-23T15:01:16Z</time>
      </trkpt>
      <trkpt lat="45.31303" lon="4.77906">
        <ele>137</ele>
        <time>2013-04-23T15:01:22Z</time>
      </trkpt>
      <trkpt lat="45.31296" lon="4.77932">
        <ele>137</ele>
        <time>2013-04-23T15:01:25Z</time>
      </trkpt>
      <trkpt lat="45.31293" lon="4.77936">
        <ele>137</ele>
        <time>2013-04-23T15:01:26Z</time>
      </trkpt>
      <trkpt lat="45.31279" lon="4.77955">
        <ele>137</ele>
        <time>2013-04-23T15:01:31Z</time>
      </trkpt>
      <trkpt lat="45.31257" lon="4.77987">
        <ele>136</ele>
        <time>2013-04-23T15:01:38Z</time>
      </trkpt>
      <trkpt lat="45.31234" lon="4.78019">
        <ele>138</ele>
        <time>2013-04-23T15:01:45Z</time>
      </trkpt>
      <trkpt lat="45.31206" lon="4.7806">
        <ele>139</ele>
        <time>2013-04-23T15:01:54Z</time>
      </trkpt>
      <trkpt lat="45.312" lon="4.78079">
        <ele>139</ele>
        <time>2013-04-23T15:01:57Z</time>
      </trkpt>
      <trkpt lat="45.31194" lon="4.78096">
        <ele>138</ele>
        <time>2013-04-23T15:02:00Z</time>
      </trkpt>
      <trkpt lat="45.31187" lon="4.78125">
        <ele>138</ele>
        <time>2013-04-23T15:02:33Z</time>
      </trkpt>
      <trkpt lat="45.31179" lon="4.78151">
        <ele>138</ele>
        <time>2013-04-23T15:02:39Z</time>
      </trkpt>
      <trkpt lat="45.31173" lon="4.7817">
        <ele>138</ele>
        <time>2013-04-23T15:04:08Z</time>
      </trkpt>
      <trkpt lat="45.3116" lon="4.78211">
        <ele>137</ele>
        <time>2013-04-23T15:04:16Z</time>
      </trkpt>
      <trkpt lat="45.31145" lon="4.78251">
        <ele>136</ele>
        <time>2013-04-23T15:04:23Z</time>
      </trkpt>
      <trkpt lat="45.31134" lon="4.78289">
        <ele>136</ele>
        <time>2013-04-23T15:04:29Z</time>
      </trkpt>
      <trkpt lat="45.3113" lon="4.783">
        <ele>135</ele>
        <time>2013-04-23T15:04:31Z</time>
      </trkpt>
      <trkpt lat="45.31127" lon="4.78312">
        <ele>135</ele>
        <time>2013-04-23T15:04:33Z</time>
      </trkpt>
      <trkpt lat="45.31118" lon="4.78339">
        <ele>135</ele>
        <time>2013-04-23T15:04:38Z</time>
      </trkpt>
      <trkpt lat="45.31113" lon="4.78357">
        <ele>135</ele>
        <time>2013-04-23T15:04:41Z</time>
      </trkpt>
      <trkpt lat="45.31107" lon="4.78376">
        <ele>135</ele>
        <time>2013-04-23T15:04:44Z</time>
      </trkpt>
      <trkpt lat="45.311" lon="4.78403">
        <ele>136</ele>
        <time>2013-04-23T15:04:48Z</time>
      </trkpt>
      <trkpt lat="45.31099" lon="4.78424">
        <ele>135</ele>
        <time>2013-04-23T15:04:51Z</time>
      </trkpt>
      <trkpt lat="45.31101" lon="4.78455">
        <ele>135</ele>
        <time>2013-04-23T15:04:56Z</time>
      </trkpt>
      <trkpt lat="45.31103" lon="4.78466">
        <ele>135</ele>
        <time>2013-04-23T15:04:57Z</time>
      </trkpt>
      <trkpt lat="45.31109" lon="4.78478">
        <ele>135</ele>
        <time>2013-04-23T15:04:59Z</time>
      </trkpt>
      <trkpt lat="45.31097" lon="4.78494">
        <ele>134</ele>
        <time>2013-04-23T15:05:02Z</time>
      </trkpt>
      <trkpt lat="45.31082" lon="4.78513">
        <ele>135</ele>
        <time>2013-04-23T15:05:06Z</time>
      </trkpt>
      <trkpt lat="45.31078" lon="4.78518">
        <ele>135</ele>
        <time>2013-04-23T15:05:07Z</time>
      </trkpt>
      <trkpt lat="45.31048" lon="4.78556">
        <ele>136</ele>
        <time>2013-04-23T15:05:15Z</time>
      </trkpt>
      <trkpt lat="45.31046" lon="4.78561">
        <ele>136</ele>
        <time>2013-04-23T15:05:16Z</time>
      </trkpt>
      <trkpt lat="45.31038" lon="4.78583">
        <ele>137</ele>
        <time>2013-04-23T15:05:20Z</time>
      </trkpt>
      <trkpt lat="45.31031" lon="4.78606">
        <ele>137</ele>
        <time>2013-04-23T15:05:25Z</time>
      </trkpt>
      <trkpt lat="45.31031" lon="4.78606">
        <ele>137</ele>
        <time>2013-04-23T15:05:28Z</time>
      </trkpt>
      <trkpt lat="45.31031" lon="4.78606">
        <ele>137</ele>
        <time>2013-04-23T15:05:42Z</time>
      </trkpt>
      <trkpt lat="45.31031" lon="4.78606">
        <ele>137</ele>
        <time>2013-04-23T15:05:54Z</time>
      </trkpt>
      <trkpt lat="45.31029" lon="4.78606">
        <ele>137</ele>
        <time>2013-04-23T15:05:57Z</time>
      </trkpt>
      <trkpt lat="45.31029" lon="4.78606">
        <ele>137</ele>
        <time>2013-04-23T15:05:57Z</time>
      </trkpt>
      <trkpt lat="45.31026" lon="4.78605">
        <ele>137</ele>
        <time>2013-04-23T15:05:59Z</time>
      </trkpt>
      <trkpt lat="45.31018" lon="4.78599">
        <ele>138</ele>
        <time>2013-04-23T15:06:02Z</time>
      </trkpt>
      <trkpt lat="45.31015" lon="4.78598">
        <ele>139</ele>
        <time>2013-04-23T15:06:03Z</time>
      </trkpt>
      <trkpt lat="45.31011" lon="4.78601">
        <ele>139</ele>
        <time>2013-04-23T15:06:04Z</time>
      </trkpt>
      <trkpt lat="45.31007" lon="4.78605">
        <ele>138</ele>
        <time>2013-04-23T15:06:06Z</time>
      </trkpt>
      <trkpt lat="45.31007" lon="4.78605">
        <ele>138</ele>
        <time>2013-04-23T15:06:09Z</time>
      </trkpt>
      <trkpt lat="45.31007" lon="4.78605">
        <ele>138</ele>
        <time>2013-04-23T15:06:24Z</time>
      </trkpt>
      <trkpt lat="45.31002" lon="4.78612">
        <ele>138</ele>
        <time>2013-04-23T15:06:33Z</time>
      </trkpt>
      <trkpt lat="45.30987" lon="4.78636">
        <ele>137</ele>
        <time>2013-04-23T15:06:38Z</time>
      </trkpt>
      <trkpt lat="45.30953" lon="4.78688">
        <ele>134</ele>
        <time>2013-04-23T15:06:48Z</time>
      </trkpt>
      <trkpt lat="45.30932" lon="4.78718">
        <ele>133</ele>
        <time>2013-04-23T15:06:54Z</time>
      </trkpt>
      <trkpt lat="45.30926" lon="4.78728">
        <ele>133</ele>
        <time>2013-04-23T15:06:56Z</time>
      </trkpt>
      <trkpt lat="45.309" lon="4.7876">
        <ele>133</ele>
        <time>2013-04-23T15:07:05Z</time>
      </trkpt>
      <trkpt lat="45.30887" lon="4.78774">
        <ele>134</ele>
        <time>2013-04-23T15:07:12Z</time>
      </trkpt>
      <trkpt lat="45.30865" lon="4.78826">
        <ele>134</ele>
        <time>2013-04-23T15:07:16Z</time>
      </trkpt>
      <trkpt lat="45.30859" lon="4.78845">
        <ele>134</ele>
        <time>2013-04-23T15:07:19Z</time>
      </trkpt>
      <trkpt lat="45.30839" lon="4.78887">
        <ele>135</ele>
        <time>2013-04-23T15:07:26Z</time>
      </trkpt>
      <trkpt lat="45.30833" lon="4.78897">
        <ele>135</ele>
        <time>2013-04-23T15:07:28Z</time>
      </trkpt>
      <trkpt lat="45.3082" lon="4.78916">
        <ele>136</ele>
        <time>2013-04-23T15:07:32Z</time>
      </trkpt>
      <trkpt lat="45.308" lon="4.78944">
        <ele>137</ele>
        <time>2013-04-23T15:07:38Z</time>
      </trkpt>
      <trkpt lat="45.30779" lon="4.78977">
        <ele>137</ele>
        <time>2013-04-23T15:07:45Z</time>
      </trkpt>
      <trkpt lat="45.30777" lon="4.78984">
        <ele>137</ele>
        <time>2013-04-23T15:07:46Z</time>
      </trkpt>
      <trkpt lat="45.3077" lon="4.79003">
        <ele>138</ele>
        <time>2013-04-23T15:07:49Z</time>
      </trkpt>
      <trkpt lat="45.30768" lon="4.7901">
        <ele>138</ele>
        <time>2013-04-23T15:07:50Z</time>
      </trkpt>
      <trkpt lat="45.30759" lon="4.79058">
        <ele>138</ele>
        <time>2013-04-23T15:07:57Z</time>
      </trkpt>
      <trkpt lat="45.30749" lon="4.79116">
        <ele>139</ele>
        <time>2013-04-23T15:08:06Z</time>
      </trkpt>
      <trkpt lat="45.30739" lon="4.79167">
        <ele>138</ele>
        <time>2013-04-23T15:08:14Z</time>
      </trkpt>
      <trkpt lat="45.30736" lon="4.79199">
        <ele>138</ele>
        <time>2013-04-23T15:08:19Z</time>
      </trkpt>
      <trkpt lat="45.30736" lon="4.79212">
        <ele>138</ele>
        <time>2013-04-23T15:08:21Z</time>
      </trkpt>
      <trkpt lat="45.30739" lon="4.79252">
        <ele>137</ele>
        <time>2013-04-23T15:08:28Z</time>
      </trkpt>
      <trkpt lat="45.30739" lon="4.79258">
        <ele>137</ele>
        <time>2013-04-23T15:08:29Z</time>
      </trkpt>
      <trkpt lat="45.30735" lon="4.7929">
        <ele>137</ele>
        <time>2013-04-23T15:08:35Z</time>
      </trkpt>
      <trkpt lat="45.30729" lon="4.79337">
        <ele>138</ele>
        <time>2013-04-23T15:08:44Z</time>
      </trkpt>
      <trkpt lat="45.3074" lon="4.79374">
        <ele>138</ele>
        <time>2013-04-23T15:08:51Z</time>
      </trkpt>
      <trkpt lat="45.30745" lon="4.79392">
        <ele>138</ele>
        <time>2013-04-23T15:08:56Z</time>
      </trkpt>
      <trkpt lat="45.30749" lon="4.79414">
        <ele>138</ele>
        <time>2013-04-23T15:09:02Z</time>
      </trkpt>
      <trkpt lat="45.3075" lon="4.79421">
        <ele>138</ele>
        <time>2013-04-23T15:09:07Z</time>
      </trkpt>
      <trkpt lat="45.3075" lon="4.79421">
        <ele>138</ele>
        <time>2013-04-23T15:09:09Z</time>
      </trkpt>
      <trkpt lat="45.3075" lon="4.79421">
        <ele>138</ele>
        <time>2013-04-23T15:09:10Z</time>
      </trkpt>
      <trkpt lat="45.3075" lon="4.79421">
        <ele>138</ele>
        <time>2013-04-23T15:09:11Z</time>
      </trkpt>
      <trkpt lat="45.3075" lon="4.79421">
        <ele>138</ele>
        <time>2013-04-23T15:09:12Z</time>
      </trkpt>
      <trkpt lat="45.3075" lon="4.79421">
        <ele>138</ele>
        <time>2013-04-23T15:09:13Z</time>
      </trkpt>
      <trkpt lat="45.3075" lon="4.79421">
        <ele>138</ele>
        <time>2013-04-23T15:09:22Z</time>
      </trkpt>
      <trkpt lat="45.3075" lon="4.79424">
        <ele>139</ele>
        <time>2013-04-23T15:09:33Z</time>
      </trkpt>
      <trkpt lat="45.3075" lon="4.79424">
        <ele>139</ele>
        <time>2013-04-23T15:09:33Z</time>
      </trkpt>
      <trkpt lat="45.3074" lon="4.7943">
        <ele>139</ele>
        <time>2013-04-23T15:09:37Z</time>
      </trkpt>
      <trkpt lat="45.30719" lon="4.79445">
        <ele>141</ele>
        <time>2013-04-23T15:09:44Z</time>
      </trkpt>
      <trkpt lat="45.30691" lon="4.79466">
        <ele>141</ele>
        <time>2013-04-23T15:09:53Z</time>
      </trkpt>
      <trkpt lat="45.30674" lon="4.7948">
        <ele>142</ele>
        <time>2013-04-23T15:09:59Z</time>
      </trkpt>
      <trkpt lat="45.3067" lon="4.79482">
        <ele>142</ele>
        <time>2013-04-23T15:10:00Z</time>
      </trkpt>
      <trkpt lat="45.30667" lon="4.79484">
        <ele>142</ele>
        <time>2013-04-23T15:10:01Z</time>
      </trkpt>
      <trkpt lat="45.30664" lon="4.79486">
        <ele>142</ele>
        <time>2013-04-23T15:10:02Z</time>
      </trkpt>
      <trkpt lat="45.30661" lon="4.79489">
        <ele>142</ele>
        <time>2013-04-23T15:10:03Z</time>
      </trkpt>
      <trkpt lat="45.30646" lon="4.79502">
        <ele>142</ele>
        <time>2013-04-23T15:10:08Z</time>
      </trkpt>
      <trkpt lat="45.30634" lon="4.79518">
        <ele>142</ele>
        <time>2013-04-23T15:10:13Z</time>
      </trkpt>
      <trkpt lat="45.30632" lon="4.79522">
        <ele>141</ele>
        <time>2013-04-23T15:10:14Z</time>
      </trkpt>
      <trkpt lat="45.3063" lon="4.79526">
        <ele>141</ele>
        <time>2013-04-23T15:10:15Z</time>
      </trkpt>
      <trkpt lat="45.30628" lon="4.79531">
        <ele>141</ele>
        <time>2013-04-23T15:10:16Z</time>
      </trkpt>
      <trkpt lat="45.30626" lon="4.79534">
        <ele>141</ele>
        <time>2013-04-23T15:10:17Z</time>
      </trkpt>
      <trkpt lat="45.30621" lon="4.79556">
        <ele>141</ele>
        <time>2013-04-23T15:10:22Z</time>
      </trkpt>
      <trkpt lat="45.30619" lon="4.79582">
        <ele>141</ele>
        <time>2013-04-23T15:10:28Z</time>
      </trkpt>
      <trkpt lat="45.30619" lon="4.79586">
        <ele>139</ele>
        <time>2013-04-23T15:10:29Z</time>
      </trkpt>
      <trkpt lat="45.3062" lon="4.7959">
        <ele>139</ele>
        <time>2013-04-23T15:10:30Z</time>
      </trkpt>
      <trkpt lat="45.3062" lon="4.79594">
        <ele>139</ele>
        <time>2013-04-23T15:10:31Z</time>
      </trkpt>
      <trkpt lat="45.30621" lon="4.79599">
        <ele>139</ele>
        <time>2013-04-23T15:10:32Z</time>
      </trkpt>
      <trkpt lat="45.30627" lon="4.79626">
        <ele>138</ele>
        <time>2013-04-23T15:10:38Z</time>
      </trkpt>
      <trkpt lat="45.30642" lon="4.79672">
        <ele>134</ele>
        <time>2013-04-23T15:10:48Z</time>
      </trkpt>
      <trkpt lat="45.30654" lon="4.79707">
        <ele>134</ele>
        <time>2013-04-23T15:10:55Z</time>
      </trkpt>
      <trkpt lat="45.30671" lon="4.79753">
        <ele>135</ele>
        <time>2013-04-23T15:11:04Z</time>
      </trkpt>
      <trkpt lat="45.30683" lon="4.79785">
        <ele>136</ele>
        <time>2013-04-23T15:11:10Z</time>
      </trkpt>
      <trkpt lat="45.30689" lon="4.798">
        <ele>136</ele>
        <time>2013-04-23T15:11:13Z</time>
      </trkpt>
      <trkpt lat="45.30707" lon="4.79848">
        <ele>138</ele>
        <time>2013-04-23T15:11:22Z</time>
      </trkpt>
      <trkpt lat="45.3072" lon="4.79882">
        <ele>138</ele>
        <time>2013-04-23T15:11:29Z</time>
      </trkpt>
      <trkpt lat="45.30737" lon="4.79927">
        <ele>140</ele>
        <time>2013-04-23T15:11:38Z</time>
      </trkpt>
      <trkpt lat="45.30751" lon="4.7996">
        <ele>140</ele>
        <time>2013-04-23T15:11:44Z</time>
      </trkpt>
      <trkpt lat="45.30755" lon="4.79973">
        <ele>140</ele>
        <time>2013-04-23T15:11:46Z</time>
      </trkpt>
      <trkpt lat="45.30765" lon="4.79999">
        <ele>139</ele>
        <time>2013-04-23T15:12:48Z</time>
      </trkpt>
      <trkpt lat="45.30766" lon="4.80003">
        <ele>138</ele>
        <time>2013-04-23T15:12:49Z</time>
      </trkpt>
      <trkpt lat="45.30769" lon="4.80015">
        <ele>138</ele>
        <time>2013-04-23T15:12:52Z</time>
      </trkpt>
      <trkpt lat="45.30772" lon="4.8003">
        <ele>138</ele>
        <time>2013-04-23T15:12:55Z</time>
      </trkpt>
      <trkpt lat="45.3078" lon="4.80064">
        <ele>137</ele>
        <time>2013-04-23T15:13:01Z</time>
      </trkpt>
      <trkpt lat="45.30789" lon="4.80121">
        <ele>135</ele>
        <time>2013-04-23T15:13:09Z</time>
      </trkpt>
      <trkpt lat="45.30792" lon="4.80153">
        <ele>135</ele>
        <time>2013-04-23T15:13:13Z</time>
      </trkpt>
      <trkpt lat="45.30791" lon="4.80161">
        <ele>136</ele>
        <time>2013-04-23T15:13:14Z</time>
      </trkpt>
      <trkpt lat="45.30789" lon="4.80169">
        <ele>136</ele>
        <time>2013-04-23T15:13:15Z</time>
      </trkpt>
      <trkpt lat="45.30784" lon="4.80174">
        <ele>136</ele>
        <time>2013-04-23T15:13:16Z</time>
      </trkpt>
      <trkpt lat="45.30779" lon="4.80177">
        <ele>136</ele>
        <time>2013-04-23T15:13:17Z</time>
      </trkpt>
      <trkpt lat="45.30775" lon="4.80179">
        <ele>136</ele>
        <time>2013-04-23T15:13:18Z</time>
      </trkpt>
      <trkpt lat="45.30772" lon="4.8018">
        <ele>136</ele>
        <time>2013-04-23T15:13:19Z</time>
      </trkpt>
      <trkpt lat="45.30769" lon="4.80178">
        <ele>136</ele>
        <time>2013-04-23T15:13:22Z</time>
      </trkpt>
      <trkpt lat="45.30769" lon="4.80178">
        <ele>136</ele>
        <time>2013-04-23T15:13:29Z</time>
      </trkpt>
      <trkpt lat="45.30769" lon="4.80178">
        <ele>136</ele>
        <time>2013-04-23T15:13:30Z</time>
      </trkpt>
      <trkpt lat="45.30769" lon="4.80178">
        <ele>136</ele>
        <time>2013-04-23T15:13:31Z</time>
      </trkpt>
      <trkpt lat="45.30769" lon="4.80178">
        <ele>136</ele>
        <time>2013-04-23T15:13:32Z</time>
      </trkpt>
      <trkpt lat="45.30769" lon="4.80178">
        <ele>136</ele>
        <time>2013-04-23T15:13:33Z</time>
      </trkpt>
      <trkpt lat="45.30769" lon="4.80178">
        <ele>136</ele>
        <time>2013-04-23T15:13:34Z</time>
      </trkpt>
      <trkpt lat="45.30768" lon="4.80173">
        <ele>136</ele>
        <time>2013-04-23T15:13:42Z</time>
      </trkpt>
      <trkpt lat="45.30768" lon="4.80173">
        <ele>136</ele>
        <time>2013-04-23T15:13:42Z</time>
      </trkpt>
      <trkpt lat="45.30768" lon="4.80158">
        <ele>136</ele>
        <time>2013-04-23T15:13:46Z</time>
      </trkpt>
      <trkpt lat="45.30766" lon="4.80149">
        <ele>136</ele>
        <time>2013-04-23T15:13:48Z</time>
      </trkpt>
      <trkpt lat="45.30763" lon="4.80148">
        <ele>136</ele>
        <time>2013-04-23T15:13:49Z</time>
      </trkpt>
      <trkpt lat="45.30752" lon="4.80154">
        <ele>136</ele>
        <time>2013-04-23T15:13:52Z</time>
      </trkpt>
      <trkpt lat="45.30727" lon="4.8017">
        <ele>136</ele>
        <time>2013-04-23T15:13:59Z</time>
      </trkpt>
      <trkpt lat="45.30699" lon="4.8019">
        <ele>137</ele>
        <time>2013-04-23T15:14:06Z</time>
      </trkpt>
      <trkpt lat="45.30672" lon="4.8021">
        <ele>137</ele>
        <time>2013-04-23T15:14:13Z</time>
      </trkpt>
      <trkpt lat="45.30647" lon="4.80229">
        <ele>137</ele>
        <time>2013-04-23T15:14:20Z</time>
      </trkpt>
      <trkpt lat="45.30604" lon="4.8026">
        <ele>137</ele>
        <time>2013-04-23T15:14:30Z</time>
      </trkpt>
      <trkpt lat="45.30571" lon="4.80284">
        <ele>138</ele>
        <time>2013-04-23T15:14:37Z</time>
      </trkpt>
      <trkpt lat="45.30544" lon="4.80304">
        <ele>138</ele>
        <time>2013-04-23T15:14:43Z</time>
      </trkpt>
      <trkpt lat="45.30508" lon="4.8033">
        <ele>138</ele>
        <time>2013-04-23T15:14:51Z</time>
      </trkpt>
      <trkpt lat="45.30479" lon="4.80351">
        <ele>138</ele>
        <time>2013-04-23T15:14:57Z</time>
      </trkpt>
      <trkpt lat="45.30474" lon="4.80355">
        <ele>138</ele>
        <time>2013-04-23T15:14:58Z</time>
      </trkpt>
      <trkpt lat="45.30441" lon="4.80378">
        <ele>138</ele>
        <time>2013-04-23T15:15:05Z</time>
      </trkpt>
      <trkpt lat="45.30413" lon="4.80393">
        <ele>138</ele>
        <time>2013-04-23T15:15:11Z</time>
      </trkpt>
      <trkpt lat="45.30386" lon="4.80397">
        <ele>138</ele>
        <time>2013-04-23T15:15:16Z</time>
      </trkpt>
      <trkpt lat="45.30376" lon="4.80395">
        <ele>137</ele>
        <time>2013-04-23T15:15:18Z</time>
      </trkpt>
      <trkpt lat="45.3035" lon="4.80379">
        <ele>137</ele>
        <time>2013-04-23T15:15:23Z</time>
      </trkpt>
      <trkpt lat="45.30317" lon="4.80349">
        <ele>136</ele>
        <time>2013-04-23T15:15:30Z</time>
      </trkpt>
      <trkpt lat="45.30283" lon="4.80324">
        <ele>136</ele>
        <time>2013-04-23T15:15:37Z</time>
      </trkpt>
      <trkpt lat="45.30246" lon="4.80308">
        <ele>135</ele>
        <time>2013-04-23T15:15:44Z</time>
      </trkpt>
      <trkpt lat="45.30208" lon="4.80303">
        <ele>135</ele>
        <time>2013-04-23T15:15:51Z</time>
      </trkpt>
      <trkpt lat="45.30179" lon="4.80313">
        <ele>135</ele>
        <time>2013-04-23T15:15:56Z</time>
      </trkpt>
      <trkpt lat="45.30168" lon="4.8032">
        <ele>135</ele>
        <time>2013-04-23T15:15:58Z</time>
      </trkpt>
      <trkpt lat="45.30152" lon="4.80333">
        <ele>135</ele>
        <time>2013-04-23T15:16:01Z</time>
      </trkpt>
      <trkpt lat="45.30128" lon="4.8036">
        <ele>136</ele>
        <time>2013-04-23T15:16:06Z</time>
      </trkpt>
      <trkpt lat="45.30094" lon="4.80391">
        <ele>135</ele>
        <time>2013-04-23T15:16:12Z</time>
      </trkpt>
      <trkpt lat="45.30088" lon="4.80396">
        <ele>135</ele>
        <time>2013-04-23T15:16:13Z</time>
      </trkpt>
      <trkpt lat="45.30082" lon="4.80402">
        <ele>134</ele>
        <time>2013-04-23T15:16:14Z</time>
      </trkpt>
      <trkpt lat="45.30076" lon="4.80407">
        <ele>134</ele>
        <time>2013-04-23T15:16:15Z</time>
      </trkpt>
      <trkpt lat="45.3007" lon="4.80413">
        <ele>134</ele>
        <time>2013-04-23T15:16:16Z</time>
      </trkpt>
      <trkpt lat="45.30064" lon="4.80419">
        <ele>135</ele>
        <time>2013-04-23T15:16:17Z</time>
      </trkpt>
      <trkpt lat="45.30059" lon="4.80425">
        <ele>135</ele>
        <time>2013-04-23T15:16:18Z</time>
      </trkpt>
      <trkpt lat="45.30036" lon="4.80449">
        <ele>135</ele>
        <time>2013-04-23T15:16:22Z</time>
      </trkpt>
      <trkpt lat="45.30008" lon="4.8048">
        <ele>135</ele>
        <time>2013-04-23T15:16:28Z</time>
      </trkpt>
      <trkpt lat="45.29998" lon="4.80489">
        <ele>134</ele>
        <time>2013-04-23T15:16:30Z</time>
      </trkpt>
      <trkpt lat="45.29984" lon="4.80504">
        <ele>136</ele>
        <time>2013-04-23T15:16:33Z</time>
      </trkpt>
      <trkpt lat="45.29949" lon="4.80541">
        <ele>136</ele>
        <time>2013-04-23T15:16:40Z</time>
      </trkpt>
      <trkpt lat="45.29919" lon="4.80572">
        <ele>136</ele>
        <time>2013-04-23T15:16:47Z</time>
      </trkpt>
      <trkpt lat="45.29904" lon="4.80588">
        <ele>136</ele>
        <time>2013-04-23T15:16:51Z</time>
      </trkpt>
      <trkpt lat="45.29897" lon="4.80595">
        <ele>136</ele>
        <time>2013-04-23T15:16:53Z</time>
      </trkpt>
      <trkpt lat="45.29894" lon="4.80599">
        <ele>136</ele>
        <time>2013-04-23T15:16:54Z</time>
      </trkpt>
      <trkpt lat="45.29882" lon="4.8061">
        <ele>136</ele>
        <time>2013-04-23T15:16:58Z</time>
      </trkpt>
      <trkpt lat="45.29858" lon="4.80634">
        <ele>136</ele>
        <time>2013-04-23T15:17:06Z</time>
      </trkpt>
      <trkpt lat="45.29846" lon="4.80649">
        <ele>136</ele>
        <time>2013-04-23T15:17:10Z</time>
      </trkpt>
      <trkpt lat="45.2984" lon="4.80657">
        <ele>135</ele>
        <time>2013-04-23T15:17:12Z</time>
      </trkpt>
      <trkpt lat="45.2982" lon="4.80681">
        <ele>135</ele>
        <time>2013-04-23T15:17:19Z</time>
      </trkpt>
      <trkpt lat="45.29803" lon="4.80697">
        <ele>135</ele>
        <time>2013-04-23T15:17:24Z</time>
      </trkpt>
      <trkpt lat="45.29799" lon="4.80701">
        <ele>135</ele>
        <time>2013-04-23T15:17:25Z</time>
      </trkpt>
      <trkpt lat="45.29775" lon="4.80726">
        <ele>135</ele>
        <time>2013-04-23T15:17:32Z</time>
      </trkpt>
      <trkpt lat="45.29747" lon="4.80755">
        <ele>134</ele>
        <time>2013-04-23T15:17:39Z</time>
      </trkpt>
      <trkpt lat="45.29725" lon="4.80778">
        <ele>135</ele>
        <time>2013-04-23T15:17:45Z</time>
      </trkpt>
      <trkpt lat="45.29709" lon="4.80794">
        <ele>136</ele>
        <time>2013-04-23T15:17:50Z</time>
      </trkpt>
      <trkpt lat="45.29687" lon="4.80814">
        <ele>135</ele>
        <time>2013-04-23T15:17:57Z</time>
      </trkpt>
      <trkpt lat="45.29673" lon="4.80826">
        <ele>135</ele>
        <time>2013-04-23T15:18:02Z</time>
      </trkpt>
      <trkpt lat="45.29668" lon="4.80829">
        <ele>135</ele>
        <time>2013-04-23T15:18:04Z</time>
      </trkpt>
      <trkpt lat="45.29666" lon="4.80831">
        <ele>135</ele>
        <time>2013-04-23T15:18:05Z</time>
      </trkpt>
      <trkpt lat="45.29666" lon="4.80831">
        <ele>135</ele>
        <time>2013-04-23T15:18:05Z</time>
      </trkpt>
      <trkpt lat="45.29662" lon="4.80835">
        <ele>135</ele>
        <time>2013-04-23T15:18:07Z</time>
      </trkpt>
      <trkpt lat="45.2965" lon="4.80843">
        <ele>136</ele>
        <time>2013-04-23T15:21:34Z</time>
      </trkpt>
      <trkpt lat="45.29635" lon="4.80855">
        <ele>136</ele>
        <time>2013-04-23T15:21:40Z</time>
      </trkpt>
      <trkpt lat="45.29616" lon="4.80871">
        <ele>136</ele>
        <time>2013-04-23T15:21:47Z</time>
      </trkpt>
      <trkpt lat="45.29599" lon="4.80882">
        <ele>136</ele>
        <time>2013-04-23T15:21:53Z</time>
      </trkpt>
      <trkpt lat="45.29587" lon="4.80892">
        <ele>136</ele>
        <time>2013-04-23T15:21:58Z</time>
      </trkpt>
      <trkpt lat="45.29574" lon="4.80902">
        <ele>135</ele>
        <time>2013-04-23T15:22:05Z</time>
      </trkpt>
      <trkpt lat="45.29574" lon="4.80902">
        <ele>135</ele>
        <time>2013-04-23T15:22:16Z</time>
      </trkpt>
      <trkpt lat="45.29574" lon="4.80902">
        <ele>135</ele>
        <time>2013-04-23T15:22:27Z</time>
      </trkpt>
      <trkpt lat="45.29565" lon="4.80908">
        <ele>135</ele>
        <time>2013-04-23T15:22:31Z</time>
      </trkpt>
      <trkpt lat="45.29551" lon="4.80917">
        <ele>136</ele>
        <time>2013-04-23T15:22:35Z</time>
      </trkpt>
      <trkpt lat="45.29524" lon="4.80935">
        <ele>135</ele>
        <time>2013-04-23T15:22:42Z</time>
      </trkpt>
      <trkpt lat="45.295" lon="4.80949">
        <ele>135</ele>
        <time>2013-04-23T15:22:48Z</time>
      </trkpt>
      <trkpt lat="45.29468" lon="4.80967">
        <ele>133</ele>
        <time>2013-04-23T15:22:55Z</time>
      </trkpt>
      <trkpt lat="45.29444" lon="4.80978">
        <ele>133</ele>
        <time>2013-04-23T15:23:00Z</time>
      </trkpt>
      <trkpt lat="45.2944" lon="4.8098">
        <ele>133</ele>
        <time>2013-04-23T15:23:01Z</time>
      </trkpt>
      <trkpt lat="45.29408" lon="4.80994">
        <ele>133</ele>
        <time>2013-04-23T15:23:07Z</time>
      </trkpt>
      <trkpt lat="45.29367" lon="4.81012">
        <ele>135</ele>
        <time>2013-04-23T15:23:14Z</time>
      </trkpt>
      <trkpt lat="45.29355" lon="4.81017">
        <ele>135</ele>
        <time>2013-04-23T15:23:16Z</time>
      </trkpt>
      <trkpt lat="45.29341" lon="4.81025">
        <ele>135</ele>
        <time>2013-04-23T15:23:19Z</time>
      </trkpt>
      <trkpt lat="45.29327" lon="4.81036">
        <ele>135</ele>
        <time>2013-04-23T15:23:24Z</time>
      </trkpt>
      <trkpt lat="45.29327" lon="4.81036">
        <ele>135</ele>
        <time>2013-04-23T15:23:28Z</time>
      </trkpt>
      <trkpt lat="45.29327" lon="4.81036">
        <ele>135</ele>
        <time>2013-04-23T15:23:44Z</time>
      </trkpt>
      <trkpt lat="45.29322" lon="4.81039">
        <ele>135</ele>
        <time>2013-04-23T15:23:53Z</time>
      </trkpt>
      <trkpt lat="45.29322" lon="4.81039">
        <ele>135</ele>
        <time>2013-04-23T15:23:53Z</time>
      </trkpt>
      <trkpt lat="45.29308" lon="4.81046">
        <ele>135</ele>
        <time>2013-04-23T15:23:58Z</time>
      </trkpt>
      <trkpt lat="45.29295" lon="4.81051">
        <ele>135</ele>
        <time>2013-04-23T15:24:02Z</time>
      </trkpt>
      <trkpt lat="45.29291" lon="4.81052">
        <ele>135</ele>
        <time>2013-04-23T15:24:03Z</time>
      </trkpt>
      <trkpt lat="45.29287" lon="4.81053">
        <ele>135</ele>
        <time>2013-04-23T15:24:04Z</time>
      </trkpt>
      <trkpt lat="45.29284" lon="4.81055">
        <ele>135</ele>
        <time>2013-04-23T15:24:05Z</time>
      </trkpt>
      <trkpt lat="45.2928" lon="4.81056">
        <ele>135</ele>
        <time>2013-04-23T15:24:06Z</time>
      </trkpt>
      <trkpt lat="45.29252" lon="4.81064">
        <ele>135</ele>
        <time>2013-04-23T15:24:13Z</time>
      </trkpt>
      <trkpt lat="45.29228" lon="4.81075">
        <ele>134</ele>
        <time>2013-04-23T15:24:19Z</time>
      </trkpt>
      <trkpt lat="45.29224" lon="4.81077">
        <ele>134</ele>
        <time>2013-04-23T15:24:20Z</time>
      </trkpt>
      <trkpt lat="45.29205" lon="4.81085">
        <ele>135</ele>
        <time>2013-04-23T15:24:25Z</time>
      </trkpt>
      <trkpt lat="45.29177" lon="4.8109">
        <ele>134</ele>
        <time>2013-04-23T15:24:32Z</time>
      </trkpt>
      <trkpt lat="45.29141" lon="4.81095">
        <ele>134</ele>
        <time>2013-04-23T15:24:40Z</time>
      </trkpt>
      <trkpt lat="45.29104" lon="4.81099">
        <ele>133</ele>
        <time>2013-04-23T15:24:48Z</time>
      </trkpt>
      <trkpt lat="45.29059" lon="4.81104">
        <ele>134</ele>
        <time>2013-04-23T15:24:57Z</time>
      </trkpt>
      <trkpt lat="45.29013" lon="4.81111">
        <ele>134</ele>
        <time>2013-04-23T15:25:06Z</time>
      </trkpt>
      <trkpt lat="45.28974" lon="4.81113">
        <ele>135</ele>
        <time>2013-04-23T15:25:13Z</time>
      </trkpt>
      <trkpt lat="45.28929" lon="4.81116">
        <ele>135</ele>
        <time>2013-04-23T15:25:21Z</time>
      </trkpt>
      <trkpt lat="45.28879" lon="4.81119">
        <ele>135</ele>
        <time>2013-04-23T15:25:30Z</time>
      </trkpt>
      <trkpt lat="45.28834" lon="4.81121">
        <ele>135</ele>
        <time>2013-04-23T15:25:38Z</time>
      </trkpt>
      <trkpt lat="45.28782" lon="4.81118">
        <ele>135</ele>
        <time>2013-04-23T15:25:47Z</time>
      </trkpt>
      <trkpt lat="45.28741" lon="4.81117">
        <ele>134</ele>
        <time>2013-04-23T15:25:55Z</time>
      </trkpt>
      <trkpt lat="45.28704" lon="4.8112">
        <ele>134</ele>
        <time>2013-04-23T15:26:02Z</time>
      </trkpt>
      <trkpt lat="45.2866" lon="4.81122">
        <ele>135</ele>
        <time>2013-04-23T15:26:10Z</time>
      </trkpt>
      <trkpt lat="45.28622" lon="4.81123">
        <ele>135</ele>
        <time>2013-04-23T15:26:17Z</time>
      </trkpt>
      <trkpt lat="45.28605" lon="4.81122">
        <ele>136</ele>
        <time>2013-04-23T15:26:20Z</time>
      </trkpt>
      <trkpt lat="45.28589" lon="4.81118">
        <ele>136</ele>
        <time>2013-04-23T15:26:23Z</time>
      </trkpt>
      <trkpt lat="45.28549" lon="4.81112">
        <ele>137</ele>
        <time>2013-04-23T15:26:30Z</time>
      </trkpt>
      <trkpt lat="45.28513" lon="4.81111">
        <ele>136</ele>
        <time>2013-04-23T15:26:37Z</time>
      </trkpt>
      <trkpt lat="45.28473" lon="4.81107">
        <ele>136</ele>
        <time>2013-04-23T15:26:44Z</time>
      </trkpt>
      <trkpt lat="45.28467" lon="4.81107">
        <ele>136</ele>
        <time>2013-04-23T15:26:45Z</time>
      </trkpt>
      <trkpt lat="45.28461" lon="4.81106">
        <ele>136</ele>
        <time>2013-04-23T15:26:46Z</time>
      </trkpt>
      <trkpt lat="45.28454" lon="4.81106">
        <ele>136</ele>
        <time>2013-04-23T15:26:47Z</time>
      </trkpt>
      <trkpt lat="45.28448" lon="4.81105">
        <ele>136</ele>
        <time>2013-04-23T15:26:48Z</time>
      </trkpt>
      <trkpt lat="45.28441" lon="4.81105">
        <ele>136</ele>
        <time>2013-04-23T15:26:49Z</time>
      </trkpt>
      <trkpt lat="45.28428" lon="4.81104">
        <ele>136</ele>
        <time>2013-04-23T15:26:51Z</time>
      </trkpt>
      <trkpt lat="45.28415" lon="4.81104">
        <ele>135</ele>
        <time>2013-04-23T15:26:53Z</time>
      </trkpt>
      <trkpt lat="45.28396" lon="4.8111">
        <ele>136</ele>
        <time>2013-04-23T15:26:56Z</time>
      </trkpt>
      <trkpt lat="45.2839" lon="4.81111">
        <ele>136</ele>
        <time>2013-04-23T15:26:57Z</time>
      </trkpt>
      <trkpt lat="45.28374" lon="4.81111">
        <ele>136</ele>
        <time>2013-04-23T15:27:00Z</time>
      </trkpt>
      <trkpt lat="45.28215" lon="4.81135">
        <ele>136</ele>
        <time>2013-04-23T15:27:32Z</time>
      </trkpt>
      <trkpt lat="45.28178" lon="4.8114">
        <ele>137</ele>
        <time>2013-04-23T15:27:40Z</time>
      </trkpt>
      <trkpt lat="45.28163" lon="4.81143">
        <ele>137</ele>
        <time>2013-04-23T15:27:43Z</time>
      </trkpt>
      <trkpt lat="45.28152" lon="4.81146">
        <ele>137</ele>
        <time>2013-04-23T15:27:45Z</time>
      </trkpt>
      <trkpt lat="45.28113" lon="4.81155">
        <ele>137</ele>
        <time>2013-04-23T15:27:53Z</time>
      </trkpt>
      <trkpt lat="45.28069" lon="4.8116">
        <ele>137</ele>
        <time>2013-04-23T15:28:01Z</time>
      </trkpt>
      <trkpt lat="45.28038" lon="4.81164">
        <ele>136</ele>
        <time>2013-04-23T15:28:07Z</time>
      </trkpt>
      <trkpt lat="45.28021" lon="4.81168">
        <ele>138</ele>
        <time>2013-04-23T15:28:11Z</time>
      </trkpt>
      <trkpt lat="45.28011" lon="4.81169">
        <ele>138</ele>
        <time>2013-04-23T15:28:13Z</time>
      </trkpt>
      <trkpt lat="45.28006" lon="4.8117">
        <ele>138</ele>
        <time>2013-04-23T15:28:14Z</time>
      </trkpt>
      <trkpt lat="45.27982" lon="4.81176">
        <ele>138</ele>
        <time>2013-04-23T15:28:19Z</time>
      </trkpt>
      <trkpt lat="45.27959" lon="4.81179">
        <ele>138</ele>
        <time>2013-04-23T15:28:24Z</time>
      </trkpt>
      <trkpt lat="45.27951" lon="4.81181">
        <ele>138</ele>
        <time>2013-04-23T15:28:26Z</time>
      </trkpt>
      <trkpt lat="45.27918" lon="4.81187">
        <ele>138</ele>
        <time>2013-04-23T15:28:33Z</time>
      </trkpt>
      <trkpt lat="45.27884" lon="4.81184">
        <ele>138</ele>
        <time>2013-04-23T15:28:39Z</time>
      </trkpt>
      <trkpt lat="45.27844" lon="4.81181">
        <ele>137</ele>
        <time>2013-04-23T15:28:45Z</time>
      </trkpt>
      <trkpt lat="45.27831" lon="4.81182">
        <ele>137</ele>
        <time>2013-04-23T15:28:47Z</time>
      </trkpt>
      <trkpt lat="45.27812" lon="4.81182">
        <ele>137</ele>
        <time>2013-04-23T15:28:50Z</time>
      </trkpt>
      <trkpt lat="45.27766" lon="4.8118">
        <ele>137</ele>
        <time>2013-04-23T15:28:57Z</time>
      </trkpt>
      <trkpt lat="45.27715" lon="4.81182">
        <ele>137</ele>
        <time>2013-04-23T15:29:04Z</time>
      </trkpt>
      <trkpt lat="45.27659" lon="4.81179">
        <ele>136</ele>
        <time>2013-04-23T15:29:12Z</time>
      </trkpt>
      <trkpt lat="45.27608" lon="4.81178">
        <ele>136</ele>
        <time>2013-04-23T15:29:19Z</time>
      </trkpt>
      <trkpt lat="45.27559" lon="4.81177">
        <ele>136</ele>
        <time>2013-04-23T15:29:26Z</time>
      </trkpt>
      <trkpt lat="45.27522" lon="4.81176">
        <ele>136</ele>
        <time>2013-04-23T15:29:31Z</time>
      </trkpt>
      <trkpt lat="45.27471" lon="4.81173">
        <ele>137</ele>
        <time>2013-04-23T15:29:38Z</time>
      </trkpt>
      <trkpt lat="45.27437" lon="4.81173">
        <ele>137</ele>
        <time>2013-04-23T15:29:43Z</time>
      </trkpt>
      <trkpt lat="45.27383" lon="4.81172">
        <ele>137</ele>
        <time>2013-04-23T15:29:51Z</time>
      </trkpt>
      <trkpt lat="45.27377" lon="4.81173">
        <ele>137</ele>
        <time>2013-04-23T15:29:52Z</time>
      </trkpt>
      <trkpt lat="45.27354" lon="4.81175">
        <ele>137</ele>
        <time>2013-04-23T15:29:56Z</time>
      </trkpt>
      <trkpt lat="45.27323" lon="4.81178">
        <ele>136</ele>
        <time>2013-04-23T15:30:02Z</time>
      </trkpt>
      <trkpt lat="45.27289" lon="4.81181">
        <ele>137</ele>
        <time>2013-04-23T15:30:09Z</time>
      </trkpt>
      <trkpt lat="45.27279" lon="4.81183">
        <ele>137</ele>
        <time>2013-04-23T15:30:11Z</time>
      </trkpt>
      <trkpt lat="45.27274" lon="4.81183">
        <ele>137</ele>
        <time>2013-04-23T15:30:12Z</time>
      </trkpt>
      <trkpt lat="45.27269" lon="4.81184">
        <ele>137</ele>
        <time>2013-04-23T15:30:13Z</time>
      </trkpt>
      <trkpt lat="45.27264" lon="4.81184">
        <ele>137</ele>
        <time>2013-04-23T15:30:14Z</time>
      </trkpt>
      <trkpt lat="45.27259" lon="4.81184">
        <ele>137</ele>
        <time>2013-04-23T15:30:15Z</time>
      </trkpt>
      <trkpt lat="45.27255" lon="4.81185">
        <ele>136</ele>
        <time>2013-04-23T15:30:16Z</time>
      </trkpt>
      <trkpt lat="45.27222" lon="4.81188">
        <ele>137</ele>
        <time>2013-04-23T15:30:23Z</time>
      </trkpt>
      <trkpt lat="45.27217" lon="4.81189">
        <ele>137</ele>
        <time>2013-04-23T15:30:24Z</time>
      </trkpt>
      <trkpt lat="45.27213" lon="4.81189">
        <ele>137</ele>
        <time>2013-04-23T15:30:25Z</time>
      </trkpt>
      <trkpt lat="45.27209" lon="4.81189">
        <ele>137</ele>
        <time>2013-04-23T15:30:26Z</time>
      </trkpt>
      <trkpt lat="45.27196" lon="4.81189">
        <ele>137</ele>
        <time>2013-04-23T15:30:30Z</time>
      </trkpt>
      <trkpt lat="45.27181" lon="4.81189">
        <ele>137</ele>
        <time>2013-04-23T15:30:36Z</time>
      </trkpt>
      <trkpt lat="45.27172" lon="4.8119">
        <ele>136</ele>
        <time>2013-04-23T15:30:39Z</time>
      </trkpt>
      <trkpt lat="45.2717" lon="4.81191">
        <ele>136</ele>
        <time>2013-04-23T15:30:40Z</time>
      </trkpt>
      <trkpt lat="45.2717" lon="4.81192">
        <ele>137</ele>
        <time>2013-04-23T15:30:45Z</time>
      </trkpt>
      <trkpt lat="45.27168" lon="4.81191">
        <ele>136</ele>
        <time>2013-04-23T15:30:51Z</time>
      </trkpt>
      <trkpt lat="45.27166" lon="4.81191">
        <ele>136</ele>
        <time>2013-04-23T15:30:52Z</time>
      </trkpt>
      <trkpt lat="45.27166" lon="4.81191">
        <ele>136</ele>
        <time>2013-04-23T15:30:52Z</time>
      </trkpt>
      <trkpt lat="45.27149" lon="4.81189">
        <ele>136</ele>
        <time>2013-04-23T15:30:56Z</time>
      </trkpt>
      <trkpt lat="45.27118" lon="4.81189">
        <ele>135</ele>
        <time>2013-04-23T15:31:01Z</time>
      </trkpt>
      <trkpt lat="45.27098" lon="4.81191">
        <ele>135</ele>
        <time>2013-04-23T15:31:04Z</time>
      </trkpt>
      <trkpt lat="45.27091" lon="4.81192">
        <ele>135</ele>
        <time>2013-04-23T15:31:05Z</time>
      </trkpt>
      <trkpt lat="45.27084" lon="4.81193">
        <ele>135</ele>
        <time>2013-04-23T15:31:06Z</time>
      </trkpt>
      <trkpt lat="45.27078" lon="4.81193">
        <ele>133</ele>
        <time>2013-04-23T15:31:07Z</time>
      </trkpt>
      <trkpt lat="45.27071" lon="4.81195">
        <ele>133</ele>
        <time>2013-04-23T15:31:08Z</time>
      </trkpt>
      <trkpt lat="45.27027" lon="4.81198">
        <ele>133</ele>
        <time>2013-04-23T15:31:15Z</time>
      </trkpt>
      <trkpt lat="45.26987" lon="4.81194">
        <ele>132</ele>
        <time>2013-04-23T15:31:22Z</time>
      </trkpt>
      <trkpt lat="45.26976" lon="4.81195">
        <ele>132</ele>
        <time>2013-04-23T15:31:24Z</time>
      </trkpt>
      <trkpt lat="45.26959" lon="4.81197">
        <ele>132</ele>
        <time>2013-04-23T15:31:27Z</time>
      </trkpt>
      <trkpt lat="45.26953" lon="4.81197">
        <ele>132</ele>
        <time>2013-04-23T15:31:28Z</time>
      </trkpt>
      <trkpt lat="45.26942" lon="4.81197">
        <ele>132</ele>
        <time>2013-04-23T15:31:30Z</time>
      </trkpt>
      <trkpt lat="45.26931" lon="4.81198">
        <ele>132</ele>
        <time>2013-04-23T15:31:32Z</time>
      </trkpt>
      <trkpt lat="45.26919" lon="4.81198">
        <ele>132</ele>
        <time>2013-04-23T15:31:35Z</time>
      </trkpt>
      <trkpt lat="45.26914" lon="4.81198">
        <ele>132</ele>
        <time>2013-04-23T15:31:36Z</time>
      </trkpt>
      <trkpt lat="45.26908" lon="4.81198">
        <ele>132</ele>
        <time>2013-04-23T15:31:37Z</time>
      </trkpt>
      <trkpt lat="45.26902" lon="4.81198">
        <ele>132</ele>
        <time>2013-04-23T15:31:38Z</time>
      </trkpt>
      <trkpt lat="45.26896" lon="4.81199">
        <ele>132</ele>
        <time>2013-04-23T15:31:39Z</time>
      </trkpt>
      <trkpt lat="45.2689" lon="4.812">
        <ele>132</ele>
        <time>2013-04-23T15:31:40Z</time>
      </trkpt>
      <trkpt lat="45.26848" lon="4.81207">
        <ele>133</ele>
        <time>2013-04-23T15:31:47Z</time>
      </trkpt>
      <trkpt lat="45.26808" lon="4.81214">
        <ele>133</ele>
        <time>2013-04-23T15:31:54Z</time>
      </trkpt>
      <trkpt lat="45.26761" lon="4.81221">
        <ele>133</ele>
        <time>2013-04-23T15:32:03Z</time>
      </trkpt>
      <trkpt lat="45.26718" lon="4.81232">
        <ele>132</ele>
        <time>2013-04-23T15:32:11Z</time>
      </trkpt>
      <trkpt lat="45.26708" lon="4.81237">
        <ele>132</ele>
        <time>2013-04-23T15:32:13Z</time>
      </trkpt>
      <trkpt lat="45.26692" lon="4.81246">
        <ele>132</ele>
        <time>2013-04-23T15:32:17Z</time>
      </trkpt>
      <trkpt lat="45.26663" lon="4.81259">
        <ele>132</ele>
        <time>2013-04-23T15:32:24Z</time>
      </trkpt>
      <trkpt lat="45.26649" lon="4.81269">
        <ele>132</ele>
        <time>2013-04-23T15:32:28Z</time>
      </trkpt>
      <trkpt lat="45.26645" lon="4.81271">
        <ele>132</ele>
        <time>2013-04-23T15:32:29Z</time>
      </trkpt>
      <trkpt lat="45.2664" lon="4.81273">
        <ele>132</ele>
        <time>2013-04-23T15:32:32Z</time>
      </trkpt>
      <trkpt lat="45.2664" lon="4.81273">
        <ele>132</ele>
        <time>2013-04-23T15:32:37Z</time>
      </trkpt>
      <trkpt lat="45.26637" lon="4.81274">
        <ele>132</ele>
        <time>2013-04-23T15:32:44Z</time>
      </trkpt>
      <trkpt lat="45.26637" lon="4.81274">
        <ele>132</ele>
        <time>2013-04-23T15:32:44Z</time>
      </trkpt>
      <trkpt lat="45.26635" lon="4.81274">
        <ele>132</ele>
        <time>2013-04-23T15:32:45Z</time>
      </trkpt>
      <trkpt lat="45.26616" lon="4.81272">
        <ele>132</ele>
        <time>2013-04-23T15:32:50Z</time>
      </trkpt>
      <trkpt lat="45.26587" lon="4.81265">
        <ele>132</ele>
        <time>2013-04-23T15:32:56Z</time>
      </trkpt>
      <trkpt lat="45.26583" lon="4.81263">
        <ele>132</ele>
        <time>2013-04-23T15:32:57Z</time>
      </trkpt>
      <trkpt lat="45.26557" lon="4.81247">
        <ele>132</ele>
        <time>2013-04-23T15:33:04Z</time>
      </trkpt>
      <trkpt lat="45.26531" lon="4.81238">
        <ele>132</ele>
        <time>2013-04-23T15:33:10Z</time>
      </trkpt>
      <trkpt lat="45.26496" lon="4.81232">
        <ele>133</ele>
        <time>2013-04-23T15:33:18Z</time>
      </trkpt>
      <trkpt lat="45.26467" lon="4.81227">
        <ele>133</ele>
        <time>2013-04-23T15:33:24Z</time>
      </trkpt>
      <trkpt lat="45.26462" lon="4.81226">
        <ele>133</ele>
        <time>2013-04-23T15:33:25Z</time>
      </trkpt>
      <trkpt lat="45.2644" lon="4.81223">
        <ele>133</ele>
        <time>2013-04-23T15:33:29Z</time>
      </trkpt>
      <trkpt lat="45.26425" lon="4.81222">
        <ele>133</ele>
        <time>2013-04-23T15:33:32Z</time>
      </trkpt>
      <trkpt lat="45.26391" lon="4.81222">
        <ele>132</ele>
        <time>2013-04-23T15:33:39Z</time>
      </trkpt>
      <trkpt lat="45.26357" lon="4.81227">
        <ele>132</ele>
        <time>2013-04-23T15:33:46Z</time>
      </trkpt>
      <trkpt lat="45.26342" lon="4.81228">
        <ele>132</ele>
        <time>2013-04-23T15:33:49Z</time>
      </trkpt>
      <trkpt lat="45.2633" lon="4.81226">
        <ele>132</ele>
        <time>2013-04-23T15:33:51Z</time>
      </trkpt>
      <trkpt lat="45.26293" lon="4.81219">
        <ele>132</ele>
        <time>2013-04-23T15:33:58Z</time>
      </trkpt>
      <trkpt lat="45.26262" lon="4.81214">
        <ele>132</ele>
        <time>2013-04-23T15:34:04Z</time>
      </trkpt>
      <trkpt lat="45.26221" lon="4.81211">
        <ele>132</ele>
        <time>2013-04-23T15:34:12Z</time>
      </trkpt>
      <trkpt lat="45.26211" lon="4.81206">
        <ele>132</ele>
        <time>2013-04-23T15:34:14Z</time>
      </trkpt>
      <trkpt lat="45.26196" lon="4.81199">
        <ele>132</ele>
        <time>2013-04-23T15:34:17Z</time>
      </trkpt>
      <trkpt lat="45.26162" lon="4.81192">
        <ele>132</ele>
        <time>2013-04-23T15:34:23Z</time>
      </trkpt>
      <trkpt lat="45.26134" lon="4.81182">
        <ele>132</ele>
        <time>2013-04-23T15:34:28Z</time>
      </trkpt>
      <trkpt lat="45.26091" lon="4.81171">
        <ele>132</ele>
        <time>2013-04-23T15:34:35Z</time>
      </trkpt>
      <trkpt lat="45.2606" lon="4.81164">
        <ele>134</ele>
        <time>2013-04-23T15:34:41Z</time>
      </trkpt>
      <trkpt lat="45.26034" lon="4.81156">
        <ele>135</ele>
        <time>2013-04-23T15:34:46Z</time>
      </trkpt>
      <trkpt lat="45.26029" lon="4.81153">
        <ele>135</ele>
        <time>2013-04-23T15:34:47Z</time>
      </trkpt>
      <trkpt lat="45.25988" lon="4.81129">
        <ele>135</ele>
        <time>2013-04-23T15:34:55Z</time>
      </trkpt>
      <trkpt lat="45.25953" lon="4.81109">
        <ele>134</ele>
        <time>2013-04-23T15:35:01Z</time>
      </trkpt>
      <trkpt lat="45.25918" lon="4.81091">
        <ele>133</ele>
        <time>2013-04-23T15:35:08Z</time>
      </trkpt>
      <trkpt lat="45.25908" lon="4.81085">
        <ele>133</ele>
        <time>2013-04-23T15:35:12Z</time>
      </trkpt>
      <trkpt lat="45.25908" lon="4.81085">
        <ele>133</ele>
        <time>2013-04-23T15:35:20Z</time>
      </trkpt>
      <trkpt lat="45.25908" lon="4.81085">
        <ele>133</ele>
        <time>2013-04-23T15:35:35Z</time>
      </trkpt>
      <trkpt lat="45.25908" lon="4.81085">
        <ele>133</ele>
        <time>2013-04-23T15:35:47Z</time>
      </trkpt>
      <trkpt lat="45.25901" lon="4.81082">
        <ele>133</ele>
        <time>2013-04-23T15:35:51Z</time>
      </trkpt>
      <trkpt lat="45.25898" lon="4.81081">
        <ele>133</ele>
        <time>2013-04-23T15:35:52Z</time>
      </trkpt>
      <trkpt lat="45.25877" lon="4.81073">
        <ele>132</ele>
        <time>2013-04-23T15:35:57Z</time>
      </trkpt>
      <trkpt lat="45.25849" lon="4.81066">
        <ele>133</ele>
        <time>2013-04-23T15:36:02Z</time>
      </trkpt>
      <trkpt lat="45.25843" lon="4.81063">
        <ele>133</ele>
        <time>2013-04-23T15:36:03Z</time>
      </trkpt>
      <trkpt lat="45.25805" lon="4.81046">
        <ele>132</ele>
        <time>2013-04-23T15:36:10Z</time>
      </trkpt>
      <trkpt lat="45.25766" lon="4.81033">
        <ele>132</ele>
        <time>2013-04-23T15:36:17Z</time>
      </trkpt>
      <trkpt lat="45.25734" lon="4.81014">
        <ele>132</ele>
        <time>2013-04-23T15:36:23Z</time>
      </trkpt>
      <trkpt lat="45.25692" lon="4.80988">
        <ele>132</ele>
        <time>2013-04-23T15:36:31Z</time>
      </trkpt>
      <trkpt lat="45.25657" lon="4.80971">
        <ele>132</ele>
        <time>2013-04-23T15:36:38Z</time>
      </trkpt>
      <trkpt lat="45.25637" lon="4.80965">
        <ele>132</ele>
        <time>2013-04-23T15:36:42Z</time>
      </trkpt>
      <trkpt lat="45.25621" lon="4.80958">
        <ele>131</ele>
        <time>2013-04-23T15:36:45Z</time>
      </trkpt>
      <trkpt lat="45.2561" lon="4.80955">
        <ele>132</ele>
        <time>2013-04-23T15:36:47Z</time>
      </trkpt>
      <trkpt lat="45.25589" lon="4.80946">
        <ele>132</ele>
        <time>2013-04-23T15:36:51Z</time>
      </trkpt>
      <trkpt lat="45.25551" lon="4.80934">
        <ele>131</ele>
        <time>2013-04-23T15:36:58Z</time>
      </trkpt>
      <trkpt lat="45.25526" lon="4.80924">
        <ele>131</ele>
        <time>2013-04-23T15:37:04Z</time>
      </trkpt>
      <trkpt lat="45.25504" lon="4.80913">
        <ele>130</ele>
        <time>2013-04-23T15:37:10Z</time>
      </trkpt>
      <trkpt lat="45.25478" lon="4.80909">
        <ele>131</ele>
        <time>2013-04-23T15:37:17Z</time>
      </trkpt>
      <trkpt lat="45.25444" lon="4.80905">
        <ele>132</ele>
        <time>2013-04-23T15:37:25Z</time>
      </trkpt>
      <trkpt lat="45.25421" lon="4.80903">
        <ele>132</ele>
        <time>2013-04-23T15:37:31Z</time>
      </trkpt>
      <trkpt lat="45.2541" lon="4.80903">
        <ele>132</ele>
        <time>2013-04-23T15:37:33Z</time>
      </trkpt>
      <trkpt lat="45.25399" lon="4.809">
        <ele>132</ele>
        <time>2013-04-23T15:37:35Z</time>
      </trkpt>
      <trkpt lat="45.25381" lon="4.80896">
        <ele>132</ele>
        <time>2013-04-23T15:37:38Z</time>
      </trkpt>
      <trkpt lat="45.2537" lon="4.80898">
        <ele>132</ele>
        <time>2013-04-23T15:37:40Z</time>
      </trkpt>
      <trkpt lat="45.2536" lon="4.80913">
        <ele>133</ele>
        <time>2013-04-23T15:37:43Z</time>
      </trkpt>
      <trkpt lat="45.25352" lon="4.80929">
        <ele>135</ele>
        <time>2013-04-23T15:37:46Z</time>
      </trkpt>
      <trkpt lat="45.25342" lon="4.80939">
        <ele>135</ele>
        <time>2013-04-23T15:37:49Z</time>
      </trkpt>
      <trkpt lat="45.25339" lon="4.80941">
        <ele>135</ele>
        <time>2013-04-23T15:37:50Z</time>
      </trkpt>
      <trkpt lat="45.25317" lon="4.80952">
        <ele>137</ele>
        <time>2013-04-23T15:37:55Z</time>
      </trkpt>
      <trkpt lat="45.25298" lon="4.80957">
        <ele>137</ele>
        <time>2013-04-23T15:38:00Z</time>
      </trkpt>
      <trkpt lat="45.25272" lon="4.80965">
        <ele>138</ele>
        <time>2013-04-23T15:38:07Z</time>
      </trkpt>
      <trkpt lat="45.25266" lon="4.80966">
        <ele>138</ele>
        <time>2013-04-23T15:38:09Z</time>
      </trkpt>
      <trkpt lat="45.25263" lon="4.80967">
        <ele>138</ele>
        <time>2013-04-23T15:38:10Z</time>
      </trkpt>
      <trkpt lat="45.25259" lon="4.80967">
        <ele>138</ele>
        <time>2013-04-23T15:38:11Z</time>
      </trkpt>
      <trkpt lat="45.25256" lon="4.80967">
        <ele>138</ele>
        <time>2013-04-23T15:38:12Z</time>
      </trkpt>
      <trkpt lat="45.25253" lon="4.80967">
        <ele>138</ele>
        <time>2013-04-23T15:38:13Z</time>
      </trkpt>
      <trkpt lat="45.25253" lon="4.80967">
        <ele>138</ele>
        <time>2013-04-23T15:38:13Z</time>
      </trkpt>
      <trkpt lat="45.25229" lon="4.80967">
        <ele>138</ele>
        <time>2013-04-23T15:38:20Z</time>
      </trkpt>
      <trkpt lat="45.25226" lon="4.80967">
        <ele>138</ele>
        <time>2013-04-23T15:38:21Z</time>
      </trkpt>
      <trkpt lat="45.25223" lon="4.80968">
        <ele>138</ele>
        <time>2013-04-23T15:38:22Z</time>
      </trkpt>
      <trkpt lat="45.2522" lon="4.80969">
        <ele>138</ele>
        <time>2013-04-23T15:38:23Z</time>
      </trkpt>
      <trkpt lat="45.25219" lon="4.80971">
        <ele>138</ele>
        <time>2013-04-23T15:38:24Z</time>
      </trkpt>
      <trkpt lat="45.25217" lon="4.80973">
        <ele>138</ele>
        <time>2013-04-23T15:38:25Z</time>
      </trkpt>
      <trkpt lat="45.25213" lon="4.80992">
        <ele>138</ele>
        <time>2013-04-23T15:38:30Z</time>
      </trkpt>
      <trkpt lat="45.25212" lon="4.8101">
        <ele>139</ele>
        <time>2013-04-23T15:38:36Z</time>
      </trkpt>
      <trkpt lat="45.25213" lon="4.8101">
        <ele>139</ele>
        <time>2013-04-23T15:38:45Z</time>
      </trkpt>
      <trkpt lat="45.25212" lon="4.8101">
        <ele>139</ele>
        <time>2013-04-23T15:38:50Z</time>
      </trkpt>
      <trkpt lat="45.25212" lon="4.8101">
        <ele>139</ele>
        <time>2013-04-23T15:38:52Z</time>
      </trkpt>
      <trkpt lat="45.25212" lon="4.8101">
        <ele>139</ele>
        <time>2013-04-23T15:39:08Z</time>
      </trkpt>
      <trkpt lat="45.25212" lon="4.8101">
        <ele>139</ele>
        <time>2013-04-23T15:39:25Z</time>
      </trkpt>
      <trkpt lat="45.25212" lon="4.8101">
        <ele>139</ele>
        <time>2013-04-23T15:39:41Z</time>
      </trkpt>
      <trkpt lat="45.25212" lon="4.8101">
        <ele>139</ele>
        <time>2013-04-23T15:39:49Z</time>
      </trkpt>
      <trkpt lat="45.25212" lon="4.81011">
        <ele>139</ele>
        <time>2013-04-23T15:39:51Z</time>
      </trkpt>
      <trkpt lat="45.25212" lon="4.81031">
        <ele>139</ele>
        <time>2013-04-23T15:40:37Z</time>
      </trkpt>
      <trkpt lat="45.25208" lon="4.81051">
        <ele>139</ele>
        <time>2013-04-23T15:40:41Z</time>
      </trkpt>
      <trkpt lat="45.25205" lon="4.81055">
        <ele>139</ele>
        <time>2013-04-23T15:40:42Z</time>
      </trkpt>
      <trkpt lat="45.2519" lon="4.81071">
        <ele>139</ele>
        <time>2013-04-23T15:40:47Z</time>
      </trkpt>
      <trkpt lat="45.25187" lon="4.81073">
        <ele>139</ele>
        <time>2013-04-23T15:40:48Z</time>
      </trkpt>
      <trkpt lat="45.25164" lon="4.81092">
        <ele>138</ele>
        <time>2013-04-23T15:40:56Z</time>
      </trkpt>
      <trkpt lat="45.25154" lon="4.81102">
        <ele>137</ele>
        <time>2013-04-23T15:40:59Z</time>
      </trkpt>
      <trkpt lat="45.2515" lon="4.81104">
        <ele>137</ele>
        <time>2013-04-23T15:41:01Z</time>
      </trkpt>
      <trkpt lat="45.25149" lon="4.81104">
        <ele>137</ele>
        <time>2013-04-23T15:41:06Z</time>
      </trkpt>
      <trkpt lat="45.2515" lon="4.81104">
        <ele>137</ele>
        <time>2013-04-23T15:41:13Z</time>
      </trkpt>
      <trkpt lat="45.2515" lon="4.81104">
        <ele>137</ele>
        <time>2013-04-23T15:41:27Z</time>
      </trkpt>
      <trkpt lat="45.2515" lon="4.81104">
        <ele>137</ele>
        <time>2013-04-23T15:41:38Z</time>
      </trkpt>
      <trkpt lat="45.2515" lon="4.81104">
        <ele>137</ele>
        <time>2013-04-23T15:41:52Z</time>
      </trkpt>
      <trkpt lat="45.2515" lon="4.81104">
        <ele>137</ele>
        <time>2013-04-23T15:42:05Z</time>
      </trkpt>
      <trkpt lat="45.25144" lon="4.81101">
        <ele>137</ele>
        <time>2013-04-23T15:42:09Z</time>
      </trkpt>
      <trkpt lat="45.25124" lon="4.81083">
        <ele>137</ele>
        <time>2013-04-23T15:42:15Z</time>
      </trkpt>
      <trkpt lat="45.25097" lon="4.81059">
        <ele>136</ele>
        <time>2013-04-23T15:42:23Z</time>
      </trkpt>
      <trkpt lat="45.25065" lon="4.81035">
        <ele>136</ele>
        <time>2013-04-23T15:42:30Z</time>
      </trkpt>
      <trkpt lat="45.25034" lon="4.81012">
        <ele>136</ele>
        <time>2013-04-23T15:42:37Z</time>
      </trkpt>
      <trkpt lat="45.24996" lon="4.80982">
        <ele>137</ele>
        <time>2013-04-23T15:42:46Z</time>
      </trkpt>
      <trkpt lat="45.24984" lon="4.80972">
        <ele>137</ele>
        <time>2013-04-23T15:42:49Z</time>
      </trkpt>
      <trkpt lat="45.2497" lon="4.80959">
        <ele>137</ele>
        <time>2013-04-23T15:42:53Z</time>
      </trkpt>
      <trkpt lat="45.2496" lon="4.80949">
        <ele>137</ele>
        <time>2013-04-23T15:42:56Z</time>
      </trkpt>
      <trkpt lat="45.24943" lon="4.80938">
        <ele>137</ele>
        <time>2013-04-23T15:43:00Z</time>
      </trkpt>
      <trkpt lat="45.24909" lon="4.80916">
        <ele>137</ele>
        <time>2013-04-23T15:43:07Z</time>
      </trkpt>
      <trkpt lat="45.24878" lon="4.80896">
        <ele>136</ele>
        <time>2013-04-23T15:43:13Z</time>
      </trkpt>
      <trkpt lat="45.24824" lon="4.80859">
        <ele>136</ele>
        <time>2013-04-23T15:43:23Z</time>
      </trkpt>
      <trkpt lat="45.24782" lon="4.80828">
        <ele>136</ele>
        <time>2013-04-23T15:43:31Z</time>
      </trkpt>
      <trkpt lat="45.24733" lon="4.8079">
        <ele>136</ele>
        <time>2013-04-23T15:43:40Z</time>
      </trkpt>
      <trkpt lat="45.24685" lon="4.80754">
        <ele>136</ele>
        <time>2013-04-23T15:43:49Z</time>
      </trkpt>
      <trkpt lat="45.2468" lon="4.80749">
        <ele>136</ele>
        <time>2013-04-23T15:43:50Z</time>
      </trkpt>
      <trkpt lat="45.24635" lon="4.80716">
        <ele>137</ele>
        <time>2013-04-23T15:43:58Z</time>
      </trkpt>
      <trkpt lat="45.24607" lon="4.80697">
        <ele>137</ele>
        <time>2013-04-23T15:44:03Z</time>
      </trkpt>
      <trkpt lat="45.24602" lon="4.80693">
        <ele>137</ele>
        <time>2013-04-23T15:44:04Z</time>
      </trkpt>
      <trkpt lat="45.24596" lon="4.80689">
        <ele>137</ele>
        <time>2013-04-23T15:44:05Z</time>
      </trkpt>
      <trkpt lat="45.24591" lon="4.80685">
        <ele>137</ele>
        <time>2013-04-23T15:44:06Z</time>
      </trkpt>
      <trkpt lat="45.24585" lon="4.80681">
        <ele>137</ele>
        <time>2013-04-23T15:44:07Z</time>
      </trkpt>
      <trkpt lat="45.24558" lon="4.80663">
        <ele>137</ele>
        <time>2013-04-23T15:44:12Z</time>
      </trkpt>
      <trkpt lat="45.24524" lon="4.80652">
        <ele>137</ele>
        <time>2013-04-23T15:44:18Z</time>
      </trkpt>
      <trkpt lat="45.24491" lon="4.80641">
        <ele>138</ele>
        <time>2013-04-23T15:44:25Z</time>
      </trkpt>
      <trkpt lat="45.24456" lon="4.80631">
        <ele>139</ele>
        <time>2013-04-23T15:44:34Z</time>
      </trkpt>
      <trkpt lat="45.24461" lon="4.80516">
        <ele>137</ele>
        <time>2013-04-23T15:45:22Z</time>
      </trkpt>
      <trkpt lat="45.24466" lon="4.80455">
        <ele>135</ele>
        <time>2013-04-23T15:45:29Z</time>
      </trkpt>
      <trkpt lat="45.24468" lon="4.80436">
        <ele>135</ele>
        <time>2013-04-23T15:45:31Z</time>
      </trkpt>
      <trkpt lat="45.24469" lon="4.80426">
        <ele>135</ele>
        <time>2013-04-23T15:45:32Z</time>
      </trkpt>
      <trkpt lat="45.2447" lon="4.80417">
        <ele>135</ele>
        <time>2013-04-23T15:45:33Z</time>
      </trkpt>
      <trkpt lat="45.24471" lon="4.80407">
        <ele>134</ele>
        <time>2013-04-23T15:45:34Z</time>
      </trkpt>
      <trkpt lat="45.24471" lon="4.80397">
        <ele>134</ele>
        <time>2013-04-23T15:45:35Z</time>
      </trkpt>
      <trkpt lat="45.24473" lon="4.80355">
        <ele>133</ele>
        <time>2013-04-23T15:45:39Z</time>
      </trkpt>
      <trkpt lat="45.24474" lon="4.80345">
        <ele>133</ele>
        <time>2013-04-23T15:45:40Z</time>
      </trkpt>
      <trkpt lat="45.24475" lon="4.80334">
        <ele>133</ele>
        <time>2013-04-23T15:45:41Z</time>
      </trkpt>
      <trkpt lat="45.24476" lon="4.80324">
        <ele>132</ele>
        <time>2013-04-23T15:45:42Z</time>
      </trkpt>
      <trkpt lat="45.24475" lon="4.80317">
        <ele>132</ele>
        <time>2013-04-23T15:45:43Z</time>
      </trkpt>
      <trkpt lat="45.24381" lon="4.80303">
        <ele>132</ele>
        <time>2013-04-23T15:46:06Z</time>
      </trkpt>
      <trkpt lat="45.24375" lon="4.80304">
        <ele>132</ele>
        <time>2013-04-23T15:46:07Z</time>
      </trkpt>
      <trkpt lat="45.24371" lon="4.80305">
        <ele>132</ele>
        <time>2013-04-23T15:46:08Z</time>
      </trkpt>
      <trkpt lat="45.24361" lon="4.80306">
        <ele>132</ele>
        <time>2013-04-23T15:46:10Z</time>
      </trkpt>
      <trkpt lat="45.24334" lon="4.8031">
        <ele>132</ele>
        <time>2013-04-23T15:46:16Z</time>
      </trkpt>
      <trkpt lat="45.24318" lon="4.80306">
        <ele>132</ele>
        <time>2013-04-23T15:49:13Z</time>
      </trkpt>
      <trkpt lat="45.24309" lon="4.80304">
        <ele>131</ele>
        <time>2013-04-23T15:49:17Z</time>
      </trkpt>
      <trkpt lat="45.24289" lon="4.80287">
        <ele>131</ele>
        <time>2013-04-23T15:49:24Z</time>
      </trkpt>
      <trkpt lat="45.24271" lon="4.8028">
        <ele>130</ele>
        <time>2013-04-23T15:49:29Z</time>
      </trkpt>
      <trkpt lat="45.2425" lon="4.80271">
        <ele>130</ele>
        <time>2013-04-23T15:49:36Z</time>
      </trkpt>
      <trkpt lat="45.24229" lon="4.80264">
        <ele>130</ele>
        <time>2013-04-23T15:49:43Z</time>
      </trkpt>
      <trkpt lat="45.24226" lon="4.80263">
        <ele>131</ele>
        <time>2013-04-23T15:49:44Z</time>
      </trkpt>
      <trkpt lat="45.24223" lon="4.80262">
        <ele>131</ele>
        <time>2013-04-23T15:49:45Z</time>
      </trkpt>
      <trkpt lat="45.24221" lon="4.80261">
        <ele>131</ele>
        <time>2013-04-23T15:49:46Z</time>
      </trkpt>
      <trkpt lat="45.2422" lon="4.80261">
        <ele>131</ele>
        <time>2013-04-23T15:49:47Z</time>
      </trkpt>
      <trkpt lat="45.24219" lon="4.80261">
        <ele>131</ele>
        <time>2013-04-23T15:49:48Z</time>
      </trkpt>
      <trkpt lat="45.24219" lon="4.80261">
        <ele>131</ele>
        <time>2013-04-23T15:50:00Z</time>
      </trkpt>
      <trkpt lat="45.24219" lon="4.80261">
        <ele>131</ele>
        <time>2013-04-23T15:50:15Z</time>
      </trkpt>
      <trkpt lat="45.24217" lon="4.80262">
        <ele>131</ele>
        <time>2013-04-23T15:50:22Z</time>
      </trkpt>
      <trkpt lat="45.24206" lon="4.80265">
        <ele>131</ele>
        <time>2013-04-23T15:50:27Z</time>
      </trkpt>
      <trkpt lat="45.24184" lon="4.80269">
        <ele>132</ele>
        <time>2013-04-23T15:50:33Z</time>
      </trkpt>
      <trkpt lat="45.24152" lon="4.80281">
        <ele>133</ele>
        <time>2013-04-23T15:50:42Z</time>
      </trkpt>
      <trkpt lat="45.24131" lon="4.80286">
        <ele>133</ele>
        <time>2013-04-23T15:50:48Z</time>
      </trkpt>
      <trkpt lat="45.24118" lon="4.8029">
        <ele>133</ele>
        <time>2013-04-23T15:50:51Z</time>
      </trkpt>
      <trkpt lat="45.24099" lon="4.80295">
        <ele>134</ele>
        <time>2013-04-23T15:50:55Z</time>
      </trkpt>
      <trkpt lat="45.24059" lon="4.80302">
        <ele>133</ele>
        <time>2013-04-23T15:51:03Z</time>
      </trkpt>
      <trkpt lat="45.24017" lon="4.80305">
        <ele>132</ele>
        <time>2013-04-23T15:51:11Z</time>
      </trkpt>
      <trkpt lat="45.2399" lon="4.80308">
        <ele>131</ele>
        <time>2013-04-23T15:51:17Z</time>
      </trkpt>
      <trkpt lat="45.23963" lon="4.80311">
        <ele>131</ele>
        <time>2013-04-23T15:51:24Z</time>
      </trkpt>
      <trkpt lat="45.23936" lon="4.80316">
        <ele>131</ele>
        <time>2013-04-23T15:51:31Z</time>
      </trkpt>
      <trkpt lat="45.23909" lon="4.80325">
        <ele>132</ele>
        <time>2013-04-23T15:51:37Z</time>
      </trkpt>
      <trkpt lat="45.23889" lon="4.8033">
        <ele>131</ele>
        <time>2013-04-23T15:51:41Z</time>
      </trkpt>
      <trkpt lat="45.23879" lon="4.80332">
        <ele>131</ele>
        <time>2013-04-23T15:51:43Z</time>
      </trkpt>
      <trkpt lat="45.23831" lon="4.80342">
        <ele>132</ele>
        <time>2013-04-23T15:51:52Z</time>
      </trkpt>
      <trkpt lat="45.23792" lon="4.80352">
        <ele>131</ele>
        <time>2013-04-23T15:52:00Z</time>
      </trkpt>
      <trkpt lat="45.23756" lon="4.80361">
        <ele>131</ele>
        <time>2013-04-23T15:52:08Z</time>
      </trkpt>
      <trkpt lat="45.23739" lon="4.80365">
        <ele>130</ele>
        <time>2013-04-23T15:52:14Z</time>
      </trkpt>
      <trkpt lat="45.23735" lon="4.80368">
        <ele>130</ele>
        <time>2013-04-23T15:52:19Z</time>
      </trkpt>
      <trkpt lat="45.23735" lon="4.80368">
        <ele>130</ele>
        <time>2013-04-23T15:52:33Z</time>
      </trkpt>
      <trkpt lat="45.23735" lon="4.80368">
        <ele>130</ele>
        <time>2013-04-23T15:52:47Z</time>
      </trkpt>
      <trkpt lat="45.23731" lon="4.80365">
        <ele>130</ele>
        <time>2013-04-23T15:52:53Z</time>
      </trkpt>
      <trkpt lat="45.23731" lon="4.80365">
        <ele>130</ele>
        <time>2013-04-23T15:52:53Z</time>
      </trkpt>
      <trkpt lat="45.23719" lon="4.80369">
        <ele>130</ele>
        <time>2013-04-23T15:52:57Z</time>
      </trkpt>
      <trkpt lat="45.23703" lon="4.80372">
        <ele>130</ele>
        <time>2013-04-23T15:53:00Z</time>
      </trkpt>
      <trkpt lat="45.23702" lon="4.80375">
        <ele>130</ele>
        <time>2013-04-23T15:53:29Z</time>
      </trkpt>
      <trkpt lat="45.23701" lon="4.80378">
        <ele>130</ele>
        <time>2013-04-23T15:53:31Z</time>
      </trkpt>
      <trkpt lat="45.23697" lon="4.80389">
        <ele>130</ele>
        <time>2013-04-23T15:53:37Z</time>
      </trkpt>
      <trkpt lat="45.23707" lon="4.80403">
        <ele>130</ele>
        <time>2013-04-23T15:55:36Z</time>
      </trkpt>
      <trkpt lat="45.23723" lon="4.80428">
        <ele>131</ele>
        <time>2013-04-23T15:55:42Z</time>
      </trkpt>
      <trkpt lat="45.23742" lon="4.80447">
        <ele>131</ele>
        <time>2013-04-23T15:55:48Z</time>
      </trkpt>
      <trkpt lat="45.23745" lon="4.80451">
        <ele>131</ele>
        <time>2013-04-23T15:55:49Z</time>
      </trkpt>
      <trkpt lat="45.23771" lon="4.80477">
        <ele>131</ele>
        <time>2013-04-23T15:55:56Z</time>
      </trkpt>
      <trkpt lat="45.23796" lon="4.80504">
        <ele>131</ele>
        <time>2013-04-23T15:56:03Z</time>
      </trkpt>
      <trkpt lat="45.23817" lon="4.80529">
        <ele>131</ele>
        <time>2013-04-23T15:56:09Z</time>
      </trkpt>
      <trkpt lat="45.23825" lon="4.80536">
        <ele>131</ele>
        <time>2013-04-23T15:56:11Z</time>
      </trkpt>
      <trkpt lat="45.23851" lon="4.80563">
        <ele>131</ele>
        <time>2013-04-23T15:56:18Z</time>
      </trkpt>
      <trkpt lat="45.23876" lon="4.80587">
        <ele>131</ele>
        <time>2013-04-23T15:56:25Z</time>
      </trkpt>
      <trkpt lat="45.23895" lon="4.80608">
        <ele>132</ele>
        <time>2013-04-23T15:56:32Z</time>
      </trkpt>
      <trkpt lat="45.23911" lon="4.80626">
        <ele>132</ele>
        <time>2013-04-23T15:56:38Z</time>
      </trkpt>
      <trkpt lat="45.23911" lon="4.80626">
        <ele>132</ele>
        <time>2013-04-23T15:56:42Z</time>
      </trkpt>
      <trkpt lat="45.23911" lon="4.80626">
        <ele>132</ele>
        <time>2013-04-23T15:56:42Z</time>
      </trkpt>
      <trkpt lat="45.23911" lon="4.80626">
        <ele>132</ele>
        <time>2013-04-23T15:56:54Z</time>
      </trkpt>
      <trkpt lat="45.2391" lon="4.80627">
        <ele>132</ele>
        <time>2013-04-23T15:57:03Z</time>
      </trkpt>
      <trkpt lat="45.2391" lon="4.80627">
        <ele>132</ele>
        <time>2013-04-23T15:57:05Z</time>
      </trkpt>
      <trkpt lat="45.2391" lon="4.80627">
        <ele>132</ele>
        <time>2013-04-23T15:57:19Z</time>
      </trkpt>
      <trkpt lat="45.23905" lon="4.80632">
        <ele>132</ele>
        <time>2013-04-23T15:57:23Z</time>
      </trkpt>
      <trkpt lat="45.23889" lon="4.80644">
        <ele>131</ele>
        <time>2013-04-23T15:57:28Z</time>
      </trkpt>
      <trkpt lat="45.23867" lon="4.80652">
        <ele>131</ele>
        <time>2013-04-23T15:57:34Z</time>
      </trkpt>
      <trkpt lat="45.23852" lon="4.80655">
        <ele>131</ele>
        <time>2013-04-23T15:57:40Z</time>
      </trkpt>
      <trkpt lat="45.23851" lon="4.80655">
        <ele>131</ele>
        <time>2013-04-23T15:57:45Z</time>
      </trkpt>
      <trkpt lat="45.23851" lon="4.80655">
        <ele>131</ele>
        <time>2013-04-23T15:57:46Z</time>
      </trkpt>
      <trkpt lat="45.23851" lon="4.80655">
        <ele>131</ele>
        <time>2013-04-23T15:57:47Z</time>
      </trkpt>
      <trkpt lat="45.23851" lon="4.80655">
        <ele>131</ele>
        <time>2013-04-23T15:57:48Z</time>
      </trkpt>
      <trkpt lat="45.23851" lon="4.80655">
        <ele>131</ele>
        <time>2013-04-23T15:57:49Z</time>
      </trkpt>
      <trkpt lat="45.23851" lon="4.80654">
        <ele>131</ele>
        <time>2013-04-23T15:57:56Z</time>
      </trkpt>
      <trkpt lat="45.23849" lon="4.80652">
        <ele>131</ele>
        <time>2013-04-23T15:57:57Z</time>
      </trkpt>
      <trkpt lat="45.23849" lon="4.80652">
        <ele>131</ele>
        <time>2013-04-23T15:57:57Z</time>
      </trkpt>
      <trkpt lat="45.23839" lon="4.80637">
        <ele>131</ele>
        <time>2013-04-23T15:58:01Z</time>
      </trkpt>
      <trkpt lat="45.2381" lon="4.80609">
        <ele>130</ele>
        <time>2013-04-23T15:58:08Z</time>
      </trkpt>
      <trkpt lat="45.23779" lon="4.80579">
        <ele>131</ele>
        <time>2013-04-23T15:58:15Z</time>
      </trkpt>
      <trkpt lat="45.23756" lon="4.80559">
        <ele>131</ele>
        <time>2013-04-23T15:58:20Z</time>
      </trkpt>
      <trkpt lat="45.23727" lon="4.80534">
        <ele>131</ele>
        <time>2013-04-23T15:58:26Z</time>
      </trkpt>
      <trkpt lat="45.23696" lon="4.80512">
        <ele>131</ele>
        <time>2013-04-23T15:58:33Z</time>
      </trkpt>
      <trkpt lat="45.2369" lon="4.80509">
        <ele>131</ele>
        <time>2013-04-23T15:58:34Z</time>
      </trkpt>
      <trkpt lat="45.23675" lon="4.80503">
        <ele>130</ele>
        <time>2013-04-23T15:58:37Z</time>
      </trkpt>
      <trkpt lat="45.23665" lon="4.805">
        <ele>130</ele>
        <time>2013-04-23T15:58:39Z</time>
      </trkpt>
      <trkpt lat="45.23648" lon="4.80496">
        <ele>130</ele>
        <time>2013-04-23T15:58:42Z</time>
      </trkpt>
      <trkpt lat="45.23637" lon="4.80494">
        <ele>130</ele>
        <time>2013-04-23T15:58:44Z</time>
      </trkpt>
      <trkpt lat="45.23631" lon="4.80492">
        <ele>130</ele>
        <time>2013-04-23T15:58:45Z</time>
      </trkpt>
      <trkpt lat="45.23607" lon="4.80486">
        <ele>131</ele>
        <time>2013-04-23T15:58:49Z</time>
      </trkpt>
      <trkpt lat="45.23571" lon="4.80479">
        <ele>131</ele>
        <time>2013-04-23T15:58:55Z</time>
      </trkpt>
      <trkpt lat="45.2354" lon="4.80474">
        <ele>131</ele>
        <time>2013-04-23T15:59:00Z</time>
      </trkpt>
      <trkpt lat="45.23495" lon="4.80463">
        <ele>130</ele>
        <time>2013-04-23T15:59:07Z</time>
      </trkpt>
      <trkpt lat="45.23451" lon="4.80454">
        <ele>130</ele>
        <time>2013-04-23T15:59:14Z</time>
      </trkpt>
      <trkpt lat="45.23415" lon="4.80446">
        <ele>130</ele>
        <time>2013-04-23T15:59:20Z</time>
      </trkpt>
      <trkpt lat="45.23379" lon="4.80432">
        <ele>130</ele>
        <time>2013-04-23T15:59:27Z</time>
      </trkpt>
      <trkpt lat="45.23363" lon="4.80427">
        <ele>130</ele>
        <time>2013-04-23T15:59:30Z</time>
      </trkpt>
      <trkpt lat="45.23352" lon="4.80424">
        <ele>130</ele>
        <time>2013-04-23T15:59:32Z</time>
      </trkpt>
      <trkpt lat="45.23346" lon="4.80424">
        <ele>130</ele>
        <time>2013-04-23T15:59:33Z</time>
      </trkpt>
      <trkpt lat="45.23319" lon="4.80422">
        <ele>131</ele>
        <time>2013-04-23T15:59:37Z</time>
      </trkpt>
      <trkpt lat="45.23304" lon="4.80424">
        <ele>131</ele>
        <time>2013-04-23T15:59:39Z</time>
      </trkpt>
      <trkpt lat="45.23284" lon="4.8043">
        <ele>132</ele>
        <time>2013-04-23T15:59:42Z</time>
      </trkpt>
      <trkpt lat="45.23265" lon="4.80439">
        <ele>132</ele>
        <time>2013-04-23T15:59:45Z</time>
      </trkpt>
      <trkpt lat="45.23253" lon="4.80441">
        <ele>132</ele>
        <time>2013-04-23T15:59:47Z</time>
      </trkpt>
      <trkpt lat="45.23211" lon="4.80441">
        <ele>134</ele>
        <time>2013-04-23T15:59:54Z</time>
      </trkpt>
      <trkpt lat="45.23205" lon="4.8044">
        <ele>133</ele>
        <time>2013-04-23T15:59:55Z</time>
      </trkpt>
      <trkpt lat="45.23181" lon="4.80435">
        <ele>133</ele>
        <time>2013-04-23T15:59:59Z</time>
      </trkpt>
      <trkpt lat="45.23143" lon="4.80433">
        <ele>133</ele>
        <time>2013-04-23T16:00:06Z</time>
      </trkpt>
      <trkpt lat="45.23138" lon="4.80433">
        <ele>133</ele>
        <time>2013-04-23T16:00:07Z</time>
      </trkpt>
      <trkpt lat="45.23119" lon="4.80431">
        <ele>132</ele>
        <time>2013-04-23T16:00:10Z</time>
      </trkpt>
      <trkpt lat="45.23074" lon="4.80426">
        <ele>131</ele>
        <time>2013-04-23T16:00:17Z</time>
      </trkpt>
      <trkpt lat="45.23058" lon="4.80425">
        <ele>132</ele>
        <time>2013-04-23T16:00:21Z</time>
      </trkpt>
      <trkpt lat="45.23056" lon="4.80425">
        <ele>132</ele>
        <time>2013-04-23T16:00:24Z</time>
      </trkpt>
      <trkpt lat="45.23056" lon="4.80425">
        <ele>132</ele>
        <time>2013-04-23T16:00:24Z</time>
      </trkpt>
      <trkpt lat="45.23056" lon="4.80425">
        <ele>132</ele>
        <time>2013-04-23T16:00:27Z</time>
      </trkpt>
      <trkpt lat="45.23056" lon="4.80425">
        <ele>132</ele>
        <time>2013-04-23T16:00:28Z</time>
      </trkpt>
      <trkpt lat="45.23056" lon="4.80425">
        <ele>132</ele>
        <time>2013-04-23T16:00:29Z</time>
      </trkpt>
      <trkpt lat="45.23056" lon="4.80425">
        <ele>132</ele>
        <time>2013-04-23T16:00:30Z</time>
      </trkpt>
      <trkpt lat="45.23056" lon="4.80425">
        <ele>132</ele>
        <time>2013-04-23T16:00:31Z</time>
      </trkpt>
      <trkpt lat="45.23054" lon="4.80424">
        <ele>132</ele>
        <time>2013-04-23T16:00:34Z</time>
      </trkpt>
      <trkpt lat="45.23042" lon="4.8042">
        <ele>132</ele>
        <time>2013-04-23T16:00:39Z</time>
      </trkpt>
      <trkpt lat="45.23019" lon="4.80412">
        <ele>131</ele>
        <time>2013-04-23T16:00:45Z</time>
      </trkpt>
      <trkpt lat="45.23002" lon="4.80409">
        <ele>131</ele>
        <time>2013-04-23T16:00:49Z</time>
      </trkpt>
      <trkpt lat="45.22986" lon="4.80409">
        <ele>131</ele>
        <time>2013-04-23T16:00:53Z</time>
      </trkpt>
      <trkpt lat="45.22978" lon="4.80407">
        <ele>131</ele>
        <time>2013-04-23T16:00:55Z</time>
      </trkpt>
      <trkpt lat="45.2296" lon="4.80406">
        <ele>131</ele>
        <time>2013-04-23T16:00:59Z</time>
      </trkpt>
      <trkpt lat="45.2292" lon="4.80405">
        <ele>131</ele>
        <time>2013-04-23T16:01:07Z</time>
      </trkpt>
      <trkpt lat="45.22894" lon="4.80407">
        <ele>131</ele>
        <time>2013-04-23T16:01:13Z</time>
      </trkpt>
      <trkpt lat="45.22867" lon="4.80408">
        <ele>131</ele>
        <time>2013-04-23T16:01:20Z</time>
      </trkpt>
      <trkpt lat="45.22849" lon="4.80411">
        <ele>131</ele>
        <time>2013-04-23T16:01:26Z</time>
      </trkpt>
      <trkpt lat="45.22829" lon="4.80416">
        <ele>131</ele>
        <time>2013-04-23T16:01:35Z</time>
      </trkpt>
      <trkpt lat="45.22775" lon="4.80432">
        <ele>132</ele>
        <time>2013-04-23T16:02:51Z</time>
      </trkpt>
      <trkpt lat="45.22749" lon="4.80441">
        <ele>132</ele>
        <time>2013-04-23T16:05:12Z</time>
      </trkpt>
      <trkpt lat="45.22729" lon="4.80448">
        <ele>131</ele>
        <time>2013-04-23T16:05:18Z</time>
      </trkpt>
      <trkpt lat="45.22694" lon="4.8046">
        <ele>131</ele>
        <time>2013-04-23T16:05:26Z</time>
      </trkpt>
      <trkpt lat="45.22675" lon="4.80467">
        <ele>130</ele>
        <time>2013-04-23T16:05:30Z</time>
      </trkpt>
      <trkpt lat="45.2267" lon="4.80469">
        <ele>130</ele>
        <time>2013-04-23T16:05:31Z</time>
      </trkpt>
      <trkpt lat="45.22652" lon="4.80476">
        <ele>129</ele>
        <time>2013-04-23T16:05:35Z</time>
      </trkpt>
      <trkpt lat="45.22642" lon="4.80479">
        <ele>129</ele>
        <time>2013-04-23T16:05:37Z</time>
      </trkpt>
      <trkpt lat="45.22621" lon="4.80488">
        <ele>129</ele>
        <time>2013-04-23T16:05:41Z</time>
      </trkpt>
      <trkpt lat="45.22611" lon="4.80493">
        <ele>130</ele>
        <time>2013-04-23T16:05:43Z</time>
      </trkpt>
      <trkpt lat="45.22591" lon="4.80505">
        <ele>130</ele>
        <time>2013-04-23T16:05:47Z</time>
      </trkpt>
      <trkpt lat="45.2255" lon="4.80528">
        <ele>129</ele>
        <time>2013-04-23T16:05:55Z</time>
      </trkpt>
      <trkpt lat="45.22508" lon="4.80549">
        <ele>129</ele>
        <time>2013-04-23T16:06:03Z</time>
      </trkpt>
      <trkpt lat="45.22471" lon="4.80573">
        <ele>128</ele>
        <time>2013-04-23T16:06:10Z</time>
      </trkpt>
      <trkpt lat="45.2246" lon="4.80579">
        <ele>128</ele>
        <time>2013-04-23T16:06:12Z</time>
      </trkpt>
      <trkpt lat="45.22418" lon="4.806">
        <ele>128</ele>
        <time>2013-04-23T16:06:20Z</time>
      </trkpt>
      <trkpt lat="45.22379" lon="4.80621">
        <ele>128</ele>
        <time>2013-04-23T16:06:27Z</time>
      </trkpt>
      <trkpt lat="45.22343" lon="4.8064">
        <ele>129</ele>
        <time>2013-04-23T16:06:33Z</time>
      </trkpt>
      <trkpt lat="45.22298" lon="4.80662">
        <ele>129</ele>
        <time>2013-04-23T16:06:40Z</time>
      </trkpt>
      <trkpt lat="45.22242" lon="4.80689">
        <ele>127</ele>
        <time>2013-04-23T16:06:49Z</time>
      </trkpt>
      <trkpt lat="45.22201" lon="4.80709">
        <ele>128</ele>
        <time>2013-04-23T16:06:57Z</time>
      </trkpt>
      <trkpt lat="45.22196" lon="4.80711">
        <ele>128</ele>
        <time>2013-04-23T16:06:58Z</time>
      </trkpt>
      <trkpt lat="45.2219" lon="4.80714">
        <ele>128</ele>
        <time>2013-04-23T16:06:59Z</time>
      </trkpt>
      <trkpt lat="45.22184" lon="4.80716">
        <ele>128</ele>
        <time>2013-04-23T16:07:00Z</time>
      </trkpt>
      <trkpt lat="45.22178" lon="4.80718">
        <ele>128</ele>
        <time>2013-04-23T16:07:01Z</time>
      </trkpt>
      <trkpt lat="45.22168" lon="4.80723">
        <ele>128</ele>
        <time>2013-04-23T16:07:03Z</time>
      </trkpt>
      <trkpt lat="45.22143" lon="4.80733">
        <ele>128</ele>
        <time>2013-04-23T16:07:08Z</time>
      </trkpt>
      <trkpt lat="45.2214" lon="4.80734">
        <ele>128</ele>
        <time>2013-04-23T16:07:09Z</time>
      </trkpt>
      <trkpt lat="45.22141" lon="4.80734">
        <ele>128</ele>
        <time>2013-04-23T16:07:12Z</time>
      </trkpt>
      <trkpt lat="45.22139" lon="4.80735">
        <ele>128</ele>
        <time>2013-04-23T16:07:22Z</time>
      </trkpt>
      <trkpt lat="45.22139" lon="4.80735">
        <ele>128</ele>
        <time>2013-04-23T16:07:22Z</time>
      </trkpt>
      <trkpt lat="45.22128" lon="4.80739">
        <ele>128</ele>
        <time>2013-04-23T16:07:26Z</time>
      </trkpt>
      <trkpt lat="45.22102" lon="4.80752">
        <ele>128</ele>
        <time>2013-04-23T16:07:31Z</time>
      </trkpt>
      <trkpt lat="45.22068" lon="4.80767">
        <ele>127</ele>
        <time>2013-04-23T16:07:37Z</time>
      </trkpt>
      <trkpt lat="45.22042" lon="4.80781">
        <ele>127</ele>
        <time>2013-04-23T16:07:42Z</time>
      </trkpt>
      <trkpt lat="45.22037" lon="4.80783">
        <ele>127</ele>
        <time>2013-04-23T16:07:43Z</time>
      </trkpt>
      <trkpt lat="45.22031" lon="4.80784">
        <ele>127</ele>
        <time>2013-04-23T16:07:44Z</time>
      </trkpt>
      <trkpt lat="45.22007" lon="4.8079">
        <ele>127</ele>
        <time>2013-04-23T16:07:48Z</time>
      </trkpt>
      <trkpt lat="45.21957" lon="4.80807">
        <ele>128</ele>
        <time>2013-04-23T16:07:56Z</time>
      </trkpt>
      <trkpt lat="45.2192" lon="4.80824">
        <ele>128</ele>
        <time>2013-04-23T16:08:03Z</time>
      </trkpt>
      <trkpt lat="45.21903" lon="4.80836">
        <ele>130</ele>
        <time>2013-04-23T16:08:07Z</time>
      </trkpt>
      <trkpt lat="45.219" lon="4.80841">
        <ele>130</ele>
        <time>2013-04-23T16:08:08Z</time>
      </trkpt>
      <trkpt lat="45.21889" lon="4.80844">
        <ele>130</ele>
        <time>2013-04-23T16:08:12Z</time>
      </trkpt>
      <trkpt lat="45.21872" lon="4.80842">
        <ele>131</ele>
        <time>2013-04-23T16:08:16Z</time>
      </trkpt>
      <trkpt lat="45.21868" lon="4.80843">
        <ele>131</ele>
        <time>2013-04-23T16:08:17Z</time>
      </trkpt>
      <trkpt lat="45.21864" lon="4.80844">
        <ele>131</ele>
        <time>2013-04-23T16:08:18Z</time>
      </trkpt>
      <trkpt lat="45.21852" lon="4.80848">
        <ele>131</ele>
        <time>2013-04-23T16:08:21Z</time>
      </trkpt>
      <trkpt lat="45.21827" lon="4.80856">
        <ele>132</ele>
        <time>2013-04-23T16:08:26Z</time>
      </trkpt>
      <trkpt lat="45.21822" lon="4.80857">
        <ele>132</ele>
        <time>2013-04-23T16:08:27Z</time>
      </trkpt>
      <trkpt lat="45.21789" lon="4.80863">
        <ele>132</ele>
        <time>2013-04-23T16:08:33Z</time>
      </trkpt>
      <trkpt lat="45.21742" lon="4.80872">
        <ele>131</ele>
        <time>2013-04-23T16:08:41Z</time>
      </trkpt>
      <trkpt lat="45.21684" lon="4.80887">
        <ele>131</ele>
        <time>2013-04-23T16:08:51Z</time>
      </trkpt>
      <trkpt lat="45.21678" lon="4.80889">
        <ele>131</ele>
        <time>2013-04-23T16:08:52Z</time>
      </trkpt>
      <trkpt lat="45.2163" lon="4.80903">
        <ele>131</ele>
        <time>2013-04-23T16:09:00Z</time>
      </trkpt>
      <trkpt lat="45.21582" lon="4.80912">
        <ele>132</ele>
        <time>2013-04-23T16:09:08Z</time>
      </trkpt>
      <trkpt lat="45.21535" lon="4.80921">
        <ele>133</ele>
        <time>2013-04-23T16:09:16Z</time>
      </trkpt>
      <trkpt lat="45.21499" lon="4.80927">
        <ele>132</ele>
        <time>2013-04-23T16:09:23Z</time>
      </trkpt>
      <trkpt lat="45.21459" lon="4.80938">
        <ele>133</ele>
        <time>2013-04-23T16:09:30Z</time>
      </trkpt>
      <trkpt lat="45.21453" lon="4.8094">
        <ele>133</ele>
        <time>2013-04-23T16:09:31Z</time>
      </trkpt>
      <trkpt lat="45.21412" lon="4.80952">
        <ele>131</ele>
        <time>2013-04-23T16:09:37Z</time>
      </trkpt>
      <trkpt lat="45.21355" lon="4.80968">
        <ele>130</ele>
        <time>2013-04-23T16:09:46Z</time>
      </trkpt>
      <trkpt lat="45.21316" lon="4.80978">
        <ele>129</ele>
        <time>2013-04-23T16:09:53Z</time>
      </trkpt>
      <trkpt lat="45.2127" lon="4.80988">
        <ele>129</ele>
        <time>2013-04-23T16:10:01Z</time>
      </trkpt>
      <trkpt lat="45.21225" lon="4.81">
        <ele>129</ele>
        <time>2013-04-23T16:10:09Z</time>
      </trkpt>
      <trkpt lat="45.21185" lon="4.81018">
        <ele>130</ele>
        <time>2013-04-23T16:10:17Z</time>
      </trkpt>
      <trkpt lat="45.2118" lon="4.81019">
        <ele>129</ele>
        <time>2013-04-23T16:10:18Z</time>
      </trkpt>
      <trkpt lat="45.21158" lon="4.81029">
        <ele>130</ele>
        <time>2013-04-23T16:10:22Z</time>
      </trkpt>
      <trkpt lat="45.21119" lon="4.81047">
        <ele>130</ele>
        <time>2013-04-23T16:10:29Z</time>
      </trkpt>
      <trkpt lat="45.21073" lon="4.81071">
        <ele>131</ele>
        <time>2013-04-23T16:10:37Z</time>
      </trkpt>
      <trkpt lat="45.21034" lon="4.8109">
        <ele>130</ele>
        <time>2013-04-23T16:10:44Z</time>
      </trkpt>
      <trkpt lat="45.21001" lon="4.81107">
        <ele>129</ele>
        <time>2013-04-23T16:10:51Z</time>
      </trkpt>
      <trkpt lat="45.20962" lon="4.81129">
        <ele>129</ele>
        <time>2013-04-23T16:10:59Z</time>
      </trkpt>
      <trkpt lat="45.20928" lon="4.81147">
        <ele>129</ele>
        <time>2013-04-23T16:11:06Z</time>
      </trkpt>
      <trkpt lat="45.20898" lon="4.81164">
        <ele>129</ele>
        <time>2013-04-23T16:11:13Z</time>
      </trkpt>
      <trkpt lat="45.20879" lon="4.81184">
        <ele>130</ele>
        <time>2013-04-23T16:11:19Z</time>
      </trkpt>
      <trkpt lat="45.20861" lon="4.81205">
        <ele>130</ele>
        <time>2013-04-23T16:11:25Z</time>
      </trkpt>
      <trkpt lat="45.20845" lon="4.81221">
        <ele>130</ele>
        <time>2013-04-23T16:11:30Z</time>
      </trkpt>
      <trkpt lat="45.20837" lon="4.81227">
        <ele>129</ele>
        <time>2013-04-23T16:11:32Z</time>
      </trkpt>
      <trkpt lat="45.20824" lon="4.81231">
        <ele>128</ele>
        <time>2013-04-23T16:11:35Z</time>
      </trkpt>
      <trkpt lat="45.20802" lon="4.81244">
        <ele>128</ele>
        <time>2013-04-23T16:11:41Z</time>
      </trkpt>
      <trkpt lat="45.20786" lon="4.81256">
        <ele>128</ele>
        <time>2013-04-23T16:11:46Z</time>
      </trkpt>
      <trkpt lat="45.20753" lon="4.81268">
        <ele>128</ele>
        <time>2013-04-23T16:11:53Z</time>
      </trkpt>
      <trkpt lat="45.20729" lon="4.81279">
        <ele>128</ele>
        <time>2013-04-23T16:11:59Z</time>
      </trkpt>
      <trkpt lat="45.20702" lon="4.81292">
        <ele>128</ele>
        <time>2013-04-23T16:12:05Z</time>
      </trkpt>
      <trkpt lat="45.20664" lon="4.81311">
        <ele>129</ele>
        <time>2013-04-23T16:12:13Z</time>
      </trkpt>
      <trkpt lat="45.20638" lon="4.81327">
        <ele>129</ele>
        <time>2013-04-23T16:12:19Z</time>
      </trkpt>
      <trkpt lat="45.20622" lon="4.81342">
        <ele>130</ele>
        <time>2013-04-23T16:12:23Z</time>
      </trkpt>
      <trkpt lat="45.20615" lon="4.8135">
        <ele>130</ele>
        <time>2013-04-23T16:12:25Z</time>
      </trkpt>
      <trkpt lat="45.20594" lon="4.81355">
        <ele>130</ele>
        <time>2013-04-23T16:12:29Z</time>
      </trkpt>
      <trkpt lat="45.20572" lon="4.81361">
        <ele>130</ele>
        <time>2013-04-23T16:12:33Z</time>
      </trkpt>
      <trkpt lat="45.20564" lon="4.81371">
        <ele>130</ele>
        <time>2013-04-23T16:12:35Z</time>
      </trkpt>
      <trkpt lat="45.20559" lon="4.8138">
        <ele>130</ele>
        <time>2013-04-23T16:12:37Z</time>
      </trkpt>
      <trkpt lat="45.20553" lon="4.81386">
        <ele>130</ele>
        <time>2013-04-23T16:12:39Z</time>
      </trkpt>
      <trkpt lat="45.20535" lon="4.8139">
        <ele>130</ele>
        <time>2013-04-23T16:12:43Z</time>
      </trkpt>
      <trkpt lat="45.20496" lon="4.81393">
        <ele>129</ele>
        <time>2013-04-23T16:12:50Z</time>
      </trkpt>
      <trkpt lat="45.20459" lon="4.81392">
        <ele>129</ele>
        <time>2013-04-23T16:12:57Z</time>
      </trkpt>
      <trkpt lat="45.20428" lon="4.81392">
        <ele>129</ele>
        <time>2013-04-23T16:13:03Z</time>
      </trkpt>
      <trkpt lat="45.20423" lon="4.81392">
        <ele>129</ele>
        <time>2013-04-23T16:13:04Z</time>
      </trkpt>
      <trkpt lat="45.20386" lon="4.81391">
        <ele>129</ele>
        <time>2013-04-23T16:13:12Z</time>
      </trkpt>
      <trkpt lat="45.20358" lon="4.81394">
        <ele>129</ele>
        <time>2013-04-23T16:13:19Z</time>
      </trkpt>
      <trkpt lat="45.20336" lon="4.81394">
        <ele>129</ele>
        <time>2013-04-23T16:13:26Z</time>
      </trkpt>
      <trkpt lat="45.20322" lon="4.8139">
        <ele>130</ele>
        <time>2013-04-23T16:13:34Z</time>
      </trkpt>
      <trkpt lat="45.20313" lon="4.81386">
        <ele>130</ele>
        <time>2013-04-23T16:14:03Z</time>
      </trkpt>
      <trkpt lat="45.20298" lon="4.81379">
        <ele>130</ele>
        <time>2013-04-23T16:14:09Z</time>
      </trkpt>
      <trkpt lat="45.20281" lon="4.81369">
        <ele>130</ele>
        <time>2013-04-23T16:14:15Z</time>
      </trkpt>
      <trkpt lat="45.20258" lon="4.81352">
        <ele>130</ele>
        <time>2013-04-23T16:14:22Z</time>
      </trkpt>
      <trkpt lat="45.20226" lon="4.81336">
        <ele>131</ele>
        <time>2013-04-23T16:14:30Z</time>
      </trkpt>
      <trkpt lat="45.20212" lon="4.81323">
        <ele>129</ele>
        <time>2013-04-23T16:14:34Z</time>
      </trkpt>
      <trkpt lat="45.20187" lon="4.813">
        <ele>129</ele>
        <time>2013-04-23T16:14:41Z</time>
      </trkpt>
      <trkpt lat="45.20168" lon="4.81276">
        <ele>128</ele>
        <time>2013-04-23T16:14:47Z</time>
      </trkpt>
      <trkpt lat="45.20144" lon="4.81242">
        <ele>132</ele>
        <time>2013-04-23T16:14:54Z</time>
      </trkpt>
      <trkpt lat="45.20116" lon="4.81202">
        <ele>135</ele>
        <time>2013-04-23T16:15:02Z</time>
      </trkpt>
      <trkpt lat="45.20093" lon="4.81163">
        <ele>135</ele>
        <time>2013-04-23T16:15:09Z</time>
      </trkpt>
      <trkpt lat="45.20063" lon="4.81105">
        <ele>135</ele>
        <time>2013-04-23T16:15:18Z</time>
      </trkpt>
      <trkpt lat="45.20041" lon="4.81059">
        <ele>131</ele>
        <time>2013-04-23T16:15:25Z</time>
      </trkpt>
      <trkpt lat="45.20014" lon="4.81006">
        <ele>129</ele>
        <time>2013-04-23T16:15:33Z</time>
      </trkpt>
      <trkpt lat="45.19991" lon="4.80965">
        <ele>131</ele>
        <time>2013-04-23T16:15:40Z</time>
      </trkpt>
      <trkpt lat="45.19958" lon="4.80916">
        <ele>130</ele>
        <time>2013-04-23T16:15:49Z</time>
      </trkpt>
      <trkpt lat="45.19929" lon="4.80883">
        <ele>130</ele>
        <time>2013-04-23T16:15:55Z</time>
      </trkpt>
      <trkpt lat="45.19895" lon="4.80843">
        <ele>131</ele>
        <time>2013-04-23T16:16:02Z</time>
      </trkpt>
      <trkpt lat="45.19863" lon="4.80805">
        <ele>129</ele>
        <time>2013-04-23T16:16:09Z</time>
      </trkpt>
      <trkpt lat="45.19854" lon="4.80799">
        <ele>129</ele>
        <time>2013-04-23T16:16:11Z</time>
      </trkpt>
      <trkpt lat="45.19841" lon="4.80793">
        <ele>129</ele>
        <time>2013-04-23T16:16:14Z</time>
      </trkpt>
      <trkpt lat="45.19828" lon="4.80788">
        <ele>131</ele>
        <time>2013-04-23T16:16:17Z</time>
      </trkpt>
      <trkpt lat="45.1981" lon="4.80785">
        <ele>131</ele>
        <time>2013-04-23T16:16:21Z</time>
      </trkpt>
      <trkpt lat="45.19782" lon="4.80784">
        <ele>131</ele>
        <time>2013-04-23T16:16:27Z</time>
      </trkpt>
      <trkpt lat="45.19774" lon="4.80784">
        <ele>131</ele>
        <time>2013-04-23T16:16:29Z</time>
      </trkpt>
      <trkpt lat="45.19756" lon="4.80783">
        <ele>131</ele>
        <time>2013-04-23T16:16:33Z</time>
      </trkpt>
      <trkpt lat="45.19737" lon="4.80779">
        <ele>131</ele>
        <time>2013-04-23T16:16:37Z</time>
      </trkpt>
      <trkpt lat="45.19727" lon="4.80776">
        <ele>131</ele>
        <time>2013-04-23T16:16:39Z</time>
      </trkpt>
      <trkpt lat="45.19705" lon="4.80771">
        <ele>130</ele>
        <time>2013-04-23T16:16:44Z</time>
      </trkpt>
      <trkpt lat="45.19701" lon="4.80771">
        <ele>130</ele>
        <time>2013-04-23T16:16:45Z</time>
      </trkpt>
      <trkpt lat="45.19696" lon="4.8077">
        <ele>130</ele>
        <time>2013-04-23T16:16:46Z</time>
      </trkpt>
      <trkpt lat="45.19674" lon="4.80768">
        <ele>129</ele>
        <time>2013-04-23T16:16:50Z</time>
      </trkpt>
      <trkpt lat="45.19621" lon="4.80763">
        <ele>129</ele>
        <time>2013-04-23T16:16:59Z</time>
      </trkpt>
      <trkpt lat="45.19569" lon="4.80764">
        <ele>129</ele>
        <time>2013-04-23T16:17:07Z</time>
      </trkpt>
      <trkpt lat="45.19522" lon="4.80767">
        <ele>129</ele>
        <time>2013-04-23T16:17:15Z</time>
      </trkpt>
      <trkpt lat="45.195" lon="4.80767">
        <ele>129</ele>
        <time>2013-04-23T16:17:20Z</time>
      </trkpt>
      <trkpt lat="45.19499" lon="4.80767">
        <ele>129</ele>
        <time>2013-04-23T16:17:24Z</time>
      </trkpt>
      <trkpt lat="45.19499" lon="4.80767">
        <ele>129</ele>
        <time>2013-04-23T16:17:36Z</time>
      </trkpt>
      <trkpt lat="45.19499" lon="4.80767">
        <ele>129</ele>
        <time>2013-04-23T16:17:51Z</time>
      </trkpt>
      <trkpt lat="45.19499" lon="4.80767">
        <ele>129</ele>
        <time>2013-04-23T16:18:08Z</time>
      </trkpt>
      <trkpt lat="45.19495" lon="4.80764">
        <ele>129</ele>
        <time>2013-04-23T16:18:13Z</time>
      </trkpt>
      <trkpt lat="45.19478" lon="4.80757">
        <ele>129</ele>
        <time>2013-04-23T16:18:18Z</time>
      </trkpt>
      <trkpt lat="45.19465" lon="4.80756">
        <ele>130</ele>
        <time>2013-04-23T16:18:21Z</time>
      </trkpt>
      <trkpt lat="45.19456" lon="4.80758">
        <ele>130</ele>
        <time>2013-04-23T16:18:23Z</time>
      </trkpt>
      <trkpt lat="45.19417" lon="4.80768">
        <ele>130</ele>
        <time>2013-04-23T16:18:31Z</time>
      </trkpt>
      <trkpt lat="45.19378" lon="4.80781">
        <ele>129</ele>
        <time>2013-04-23T16:18:39Z</time>
      </trkpt>
      <trkpt lat="45.19339" lon="4.808">
        <ele>129</ele>
        <time>2013-04-23T16:18:47Z</time>
      </trkpt>
      <trkpt lat="45.19298" lon="4.80824">
        <ele>128</ele>
        <time>2013-04-23T16:18:56Z</time>
      </trkpt>
      <trkpt lat="45.19265" lon="4.80849">
        <ele>129</ele>
        <time>2013-04-23T16:19:03Z</time>
      </trkpt>
      <trkpt lat="45.19237" lon="4.80868">
        <ele>129</ele>
        <time>2013-04-23T16:19:09Z</time>
      </trkpt>
      <trkpt lat="45.19207" lon="4.80887">
        <ele>129</ele>
        <time>2013-04-23T16:19:16Z</time>
      </trkpt>
      <trkpt lat="45.19169" lon="4.80915">
        <ele>131</ele>
        <time>2013-04-23T16:19:24Z</time>
      </trkpt>
      <trkpt lat="45.19129" lon="4.80943">
        <ele>130</ele>
        <time>2013-04-23T16:19:32Z</time>
      </trkpt>
      <trkpt lat="45.19087" lon="4.80971">
        <ele>130</ele>
        <time>2013-04-23T16:19:40Z</time>
      </trkpt>
      <trkpt lat="45.19041" lon="4.81003">
        <ele>131</ele>
        <time>2013-04-23T16:19:49Z</time>
      </trkpt>
      <trkpt lat="45.19006" lon="4.81028">
        <ele>131</ele>
        <time>2013-04-23T16:19:56Z</time>
      </trkpt>
      <trkpt lat="45.1898" lon="4.81045">
        <ele>129</ele>
        <time>2013-04-23T16:20:02Z</time>
      </trkpt>
      <trkpt lat="45.18935" lon="4.81077">
        <ele>130</ele>
        <time>2013-04-23T16:20:12Z</time>
      </trkpt>
      <trkpt lat="45.18902" lon="4.81099">
        <ele>130</ele>
        <time>2013-04-23T16:20:19Z</time>
      </trkpt>
      <trkpt lat="45.1886" lon="4.81127">
        <ele>129</ele>
        <time>2013-04-23T16:20:28Z</time>
      </trkpt>
      <trkpt lat="45.18828" lon="4.81147">
        <ele>129</ele>
        <time>2013-04-23T16:20:36Z</time>
      </trkpt>
      <trkpt lat="45.18798" lon="4.81163">
        <ele>128</ele>
        <time>2013-04-23T16:20:43Z</time>
      </trkpt>
      <trkpt lat="45.18763" lon="4.81183">
        <ele>129</ele>
        <time>2013-04-23T16:20:52Z</time>
      </trkpt>
      <trkpt lat="45.18739" lon="4.81196">
        <ele>129</ele>
        <time>2013-04-23T16:20:59Z</time>
      </trkpt>
      <trkpt lat="45.18712" lon="4.8121">
        <ele>130</ele>
        <time>2013-04-23T16:21:07Z</time>
      </trkpt>
      <trkpt lat="45.18693" lon="4.8122">
        <ele>130</ele>
        <time>2013-04-23T16:21:14Z</time>
      </trkpt>
      <trkpt lat="45.18692" lon="4.81221">
        <ele>131</ele>
        <time>2013-04-23T16:21:18Z</time>
      </trkpt>
      <trkpt lat="45.18692" lon="4.81221">
        <ele>131</ele>
        <time>2013-04-23T16:21:32Z</time>
      </trkpt>
      <trkpt lat="45.18692" lon="4.81221">
        <ele>131</ele>
        <time>2013-04-23T16:21:45Z</time>
      </trkpt>
      <trkpt lat="45.18692" lon="4.81221">
        <ele>131</ele>
        <time>2013-04-23T16:21:57Z</time>
      </trkpt>
      <trkpt lat="45.18692" lon="4.81221">
        <ele>131</ele>
        <time>2013-04-23T16:22:12Z</time>
      </trkpt>
      <trkpt lat="45.18691" lon="4.81221">
        <ele>131</ele>
        <time>2013-04-23T16:22:20Z</time>
      </trkpt>
      <trkpt lat="45.18686" lon="4.81226">
        <ele>131</ele>
        <time>2013-04-23T16:22:26Z</time>
      </trkpt>
      <trkpt lat="45.18686" lon="4.81226">
        <ele>131</ele>
        <time>2013-04-23T16:22:37Z</time>
      </trkpt>
      <trkpt lat="45.18686" lon="4.81226">
        <ele>131</ele>
        <time>2013-04-23T16:22:48Z</time>
      </trkpt>
      <trkpt lat="45.18686" lon="4.81226">
        <ele>131</ele>
        <time>2013-04-23T16:22:58Z</time>
      </trkpt>
      <trkpt lat="45.18686" lon="4.81226">
        <ele>131</ele>
        <time>2013-04-23T16:23:12Z</time>
      </trkpt>
      <trkpt lat="45.18686" lon="4.81226">
        <ele>131</ele>
        <time>2013-04-23T16:23:22Z</time>
      </trkpt>
      <trkpt lat="45.18686" lon="4.81226">
        <ele>131</ele>
        <time>2013-04-23T16:23:36Z</time>
      </trkpt>
      <trkpt lat="45.18686" lon="4.81226">
        <ele>131</ele>
        <time>2013-04-23T16:23:49Z</time>
      </trkpt>
      <trkpt lat="45.18434" lon="4.81352">
        <ele>131</ele>
      </trkpt>
      <trkpt lat="45.18416" lon="4.8125">
        <ele>127</ele>
      </trkpt>
      <trkpt lat="45.18391" lon="4.8112">
        <ele>128</ele>
      </trkpt>
      <trkpt lat="45.18381" lon="4.81065">
        <ele>130</ele>
      </trkpt>
      <trkpt lat="45.18378" lon="4.81051">
        <ele>131</ele>
      </trkpt>
      <trkpt lat="45.18362" lon="4.8095">
        <ele>131</ele>
      </trkpt>
      <trkpt lat="45.18358" lon="4.80941">
        <ele>131</ele>
      </trkpt>
      <trkpt lat="45.18355" lon="4.80934">
        <ele>131</ele>
      </trkpt>
      <trkpt lat="45.1835" lon="4.80932">
        <ele>131</ele>
      </trkpt>
      <trkpt lat="45.18344" lon="4.8093">
        <ele>131</ele>
      </trkpt>
      <trkpt lat="45.18339" lon="4.80931">
        <ele>131</ele>
      </trkpt>
      <trkpt lat="45.18332" lon="4.80937">
        <ele>131</ele>
      </trkpt>
      <trkpt lat="45.1832" lon="4.80964">
        <ele>131</ele>
      </trkpt>
      <trkpt lat="45.18305" lon="4.81007">
        <ele>132</ele>
      </trkpt>
      <trkpt lat="45.183" lon="4.81041">
        <ele>132</ele>
      </trkpt>
      <trkpt lat="45.18302" lon="4.81077">
        <ele>132</ele>
      </trkpt>
      <trkpt lat="45.18303" lon="4.81102">
        <ele>131</ele>
      </trkpt>
      <trkpt lat="45.18304" lon="4.81112">
        <ele>130</ele>
      </trkpt>
      <trkpt lat="45.18302" lon="4.81117">
        <ele>130</ele>
      </trkpt>
      <trkpt lat="45.18302" lon="4.81117">
        <ele>130</ele>
      </trkpt>
      <trkpt lat="45.18298" lon="4.81119">
        <ele>130</ele>
      </trkpt>
      <trkpt lat="45.18276" lon="4.81122">
        <ele>130</ele>
      </trkpt>
      <trkpt lat="45.18239" lon="4.81122">
        <ele>129</ele>
      </trkpt>
      <trkpt lat="45.18201" lon="4.81121">
        <ele>129</ele>
      </trkpt>
      <trkpt lat="45.18164" lon="4.81116">
        <ele>129</ele>
      </trkpt>
      <trkpt lat="45.18118" lon="4.81108">
        <ele>129</ele>
      </trkpt>
      <trkpt lat="45.18071" lon="4.81096">
        <ele>130</ele>
      </trkpt>
      <trkpt lat="45.18009" lon="4.81075">
        <ele>128</ele>
      </trkpt>
      <trkpt lat="45.17952" lon="4.8105">
        <ele>127</ele>
      </trkpt>
      <trkpt lat="45.17899" lon="4.81022">
        <ele>127</ele>
      </trkpt>
      <trkpt lat="45.17794" lon="4.80966">
        <ele>127</ele>
      </trkpt>
      <trkpt lat="45.17576" lon="4.80848">
        <ele>130</ele>
      </trkpt>
      <trkpt lat="45.17474" lon="4.80792">
        <ele>129</ele>
      </trkpt>
      <trkpt lat="45.17429" lon="4.80766">
        <ele>129</ele>
      </trkpt>
      <trkpt lat="45.17361" lon="4.8073">
        <ele>129</ele>
      </trkpt>
      <trkpt lat="45.17294" lon="4.80696">
        <ele>129</ele>
      </trkpt>
      <trkpt lat="45.17241" lon="4.80672">
        <ele>130</ele>
      </trkpt>
      <trkpt lat="45.17153" lon="4.80644">
        <ele>130</ele>
      </trkpt>
      <trkpt lat="45.17065" lon="4.80627">
        <ele>132</ele>
      </trkpt>
      <trkpt lat="45.17015" lon="4.80617">
        <ele>133</ele>
      </trkpt>
      <trkpt lat="45.1699" lon="4.80616">
        <ele>134</ele>
      </trkpt>
      <trkpt lat="45.16972" lon="4.8062">
        <ele>133</ele>
      </trkpt>
      <trkpt lat="45.16956" lon="4.80626">
        <ele>133</ele>
      </trkpt>
      <trkpt lat="45.16934" lon="4.80629">
        <ele>133</ele>
      </trkpt>
      <trkpt lat="45.16923" lon="4.80623">
        <ele>134</ele>
      </trkpt>
      <trkpt lat="45.16911" lon="4.80615">
        <ele>138</ele>
      </trkpt>
      <trkpt lat="45.16895" lon="4.80623">
        <ele>137</ele>
      </trkpt>
      <trkpt lat="45.16875" lon="4.80635">
        <ele>137</ele>
      </trkpt>
      <trkpt lat="45.16879" lon="4.80624">
        <ele>138</ele>
      </trkpt>
      <trkpt lat="45.1689" lon="4.80614">
        <ele>138</ele>
      </trkpt>
      <trkpt lat="45.16905" lon="4.80605">
        <ele>139</ele>
      </trkpt>
      <trkpt lat="45.16908" lon="4.80599">
        <ele>140</ele>
      </trkpt>
      <trkpt lat="45.16899" lon="4.80599">
        <ele>139</ele>
      </trkpt>
      <trkpt lat="45.16889" lon="4.80605">
        <ele>139</ele>
      </trkpt>
      <trkpt lat="45.16876" lon="4.80616">
        <ele>138</ele>
      </trkpt>
      <trkpt lat="45.16865" lon="4.80627">
        <ele>138</ele>
      </trkpt>
      <trkpt lat="45.16856" lon="4.80641">
        <ele>138</ele>
      </trkpt>
      <trkpt lat="45.1684" lon="4.80649">
        <ele>137</ele>
      </trkpt>
      <trkpt lat="45.16829" lon="4.8065">
        <ele>141</ele>
      </trkpt>
      <trkpt lat="45.16816" lon="4.80651">
        <ele>141</ele>
      </trkpt>
      <trkpt lat="45.16781" lon="4.80672">
        <ele>136</ele>
      </trkpt>
      <trkpt lat="45.16741" lon="4.80702">
        <ele>139</ele>
      </trkpt>
      <trkpt lat="45.16693" lon="4.80733">
        <ele>140</ele>
      </trkpt>
      <trkpt lat="45.16668" lon="4.80752">
        <ele>140</ele>
      </trkpt>
      <trkpt lat="45.16621" lon="4.80785">
        <ele>139</ele>
      </trkpt>
      <trkpt lat="45.16527" lon="4.80854">
        <ele>137</ele>
      </trkpt>
      <trkpt lat="45.1643" lon="4.80923">
        <ele>135</ele>
      </trkpt>
      <trkpt lat="45.16376" lon="4.80955">
        <ele>137</ele>
      </trkpt>
      <trkpt lat="45.16332" lon="4.80981">
        <ele>140</ele>
      </trkpt>
      <trkpt lat="45.16299" lon="4.81003">
        <ele>135</ele>
      </trkpt>
      <trkpt lat="45.16272" lon="4.81026">
        <ele>135</ele>
      </trkpt>
      <trkpt lat="45.16252" lon="4.81046">
        <ele>134</ele>
      </trkpt>
      <trkpt lat="45.16239" lon="4.81063">
        <ele>137</ele>
      </trkpt>
      <trkpt lat="45.16225" lon="4.81086">
        <ele>133</ele>
      </trkpt>
      <trkpt lat="45.1621" lon="4.81102">
        <ele>133</ele>
      </trkpt>
      <trkpt lat="45.1619" lon="4.81112">
        <ele>134</ele>
      </trkpt>
      <trkpt lat="45.16173" lon="4.81125">
        <ele>134</ele>
      </trkpt>
      <trkpt lat="45.16157" lon="4.81138">
        <ele>137</ele>
      </trkpt>
      <trkpt lat="45.16139" lon="4.81164">
        <ele>137</ele>
      </trkpt>
      <trkpt lat="45.16117" lon="4.81198">
        <ele>135</ele>
      </trkpt>
      <trkpt lat="45.16065" lon="4.81288">
        <ele>137</ele>
      </trkpt>
      <trkpt lat="45.16039" lon="4.81348">
        <ele>135</ele>
      </trkpt>
      <trkpt lat="45.16036" lon="4.81365">
        <ele>134</ele>
      </trkpt>
      <trkpt lat="45.16031" lon="4.81401">
        <ele>134</ele>
      </trkpt>
      <trkpt lat="45.16022" lon="4.81428">
        <ele>132</ele>
      </trkpt>
      <trkpt lat="45.15949" lon="4.81616">
        <ele>129</ele>
      </trkpt>
      <trkpt lat="45.15927" lon="4.81676">
        <ele>129</ele>
      </trkpt>
      <trkpt lat="45.15923" lon="4.81692">
        <ele>128</ele>
      </trkpt>
      <trkpt lat="45.15923" lon="4.81708">
        <ele>127</ele>
      </trkpt>
      <trkpt lat="45.15927" lon="4.8173">
        <ele>127</ele>
      </trkpt>
      <trkpt lat="45.15932" lon="4.8175">
        <ele>126</ele>
      </trkpt>
      <trkpt lat="45.15933" lon="4.8177">
        <ele>126</ele>
      </trkpt>
      <trkpt lat="45.15933" lon="4.81794">
        <ele>126</ele>
      </trkpt>
      <trkpt lat="45.15924" lon="4.81845">
        <ele>126</ele>
      </trkpt>
      <trkpt lat="45.15913" lon="4.81937">
        <ele>126</ele>
      </trkpt>
      <trkpt lat="45.15905" lon="4.81994">
        <ele>126</ele>
      </trkpt>
      <trkpt lat="45.15896" lon="4.82055">
        <ele>128</ele>
      </trkpt>
      <trkpt lat="45.15873" lon="4.82158">
        <ele>128</ele>
      </trkpt>
      <trkpt lat="45.15861" lon="4.82204">
        <ele>129</ele>
      </trkpt>
      <trkpt lat="45.1585" lon="4.82242">
        <ele>129</ele>
      </trkpt>
      <trkpt lat="45.15817" lon="4.82325">
        <ele>129</ele>
      </trkpt>
      <trkpt lat="45.15801" lon="4.82357">
        <ele>129</ele>
      </trkpt>
      <trkpt lat="45.15785" lon="4.82382">
        <ele>128</ele>
      </trkpt>
      <trkpt lat="45.1577" lon="4.82401">
        <ele>128</ele>
      </trkpt>
      <trkpt lat="45.15737" lon="4.82441">
        <ele>128</ele>
      </trkpt>
      <trkpt lat="45.15665" lon="4.82488">
        <ele>127</ele>
      </trkpt>
      <trkpt lat="45.15601" lon="4.82507">
        <ele>127</ele>
      </trkpt>
      <trkpt lat="45.15523" lon="4.82513">
        <ele>127</ele>
      </trkpt>
      <trkpt lat="45.15448" lon="4.82499">
        <ele>127</ele>
      </trkpt>
      <trkpt lat="45.1537" lon="4.82468">
        <ele>127</ele>
      </trkpt>
      <trkpt lat="45.15312" lon="4.82427">
        <ele>127</ele>
      </trkpt>
      <trkpt lat="45.15245" lon="4.82372">
        <ele>126</ele>
      </trkpt>
      <trkpt lat="45.1517" lon="4.8231">
        <ele>124</ele>
      </trkpt>
      <trkpt lat="45.15053" lon="4.82212">
        <ele>123</ele>
      </trkpt>
      <trkpt lat="45.14988" lon="4.82154">
        <ele>123</ele>
      </trkpt>
      <trkpt lat="45.1496" lon="4.82129">
        <ele>123</ele>
      </trkpt>
      <trkpt lat="45.14939" lon="4.82111">
        <ele>124</ele>
      </trkpt>
      <trkpt lat="45.14908" lon="4.82085">
        <ele>124</ele>
      </trkpt>
      <trkpt lat="45.14859" lon="4.8204">
        <ele>125</ele>
      </trkpt>
      <trkpt lat="45.14779" lon="4.81962">
        <ele>126</ele>
      </trkpt>
      <trkpt lat="45.14665" lon="4.81845">
        <ele>129</ele>
      </trkpt>
      <trkpt lat="45.14555" lon="4.81737">
        <ele>127</ele>
      </trkpt>
      <trkpt lat="45.14471" lon="4.81646">
        <ele>127</ele>
      </trkpt>
      <trkpt lat="45.14422" lon="4.81599">
        <ele>127</ele>
      </trkpt>
      <trkpt lat="45.14342" lon="4.81521">
        <ele>126</ele>
      </trkpt>
      <trkpt lat="45.14241" lon="4.81412">
        <ele>123</ele>
      </trkpt>
      <trkpt lat="45.14193" lon="4.81351">
        <ele>124</ele>
      </trkpt>
      <trkpt lat="45.14171" lon="4.81328">
        <ele>123</ele>
      </trkpt>
      <trkpt lat="45.14158" lon="4.81297">
        <ele>124</ele>
      </trkpt>
      <trkpt lat="45.14151" lon="4.81276">
        <ele>124</ele>
      </trkpt>
      <trkpt lat="45.14149" lon="4.81264">
        <ele>124</ele>
      </trkpt>
      <trkpt lat="45.1414" lon="4.8125">
        <ele>124</ele>
      </trkpt>
      <trkpt lat="45.14129" lon="4.81246">
        <ele>125</ele>
      </trkpt>
      <trkpt lat="45.14108" lon="4.81245">
        <ele>126</ele>
      </trkpt>
      <trkpt lat="45.14092" lon="4.81228">
        <ele>127</ele>
      </trkpt>
      <trkpt lat="45.14076" lon="4.8121">
        <ele>128</ele>
      </trkpt>
      <trkpt lat="45.14029" lon="4.81146">
        <ele>128</ele>
      </trkpt>
      <trkpt lat="45.13986" lon="4.81087">
        <ele>128</ele>
      </trkpt>
      <trkpt lat="45.13948" lon="4.8103">
        <ele>129</ele>
      </trkpt>
      <trkpt lat="45.13909" lon="4.80971">
        <ele>129</ele>
      </trkpt>
      <trkpt lat="45.13876" lon="4.80914">
        <ele>128</ele>
      </trkpt>
      <trkpt lat="45.13869" lon="4.809">
        <ele>128</ele>
      </trkpt>
      <trkpt lat="45.13864" lon="4.80878">
        <ele>128</ele>
      </trkpt>
      <trkpt lat="45.13866" lon="4.80864">
        <ele>128</ele>
      </trkpt>
      <trkpt lat="45.13866" lon="4.80855">
        <ele>128</ele>
      </trkpt>
      <trkpt lat="45.13863" lon="4.80848">
        <ele>127</ele>
      </trkpt>
      <trkpt lat="45.13855" lon="4.80828">
        <ele>127</ele>
      </trkpt>
      <trkpt lat="45.1384" lon="4.80795">
        <ele>127</ele>
      </trkpt>
      <trkpt lat="45.13823" lon="4.80752">
        <ele>126</ele>
      </trkpt>
      <trkpt lat="45.13809" lon="4.80717">
        <ele>126</ele>
      </trkpt>
      <trkpt lat="45.13797" lon="4.80692">
        <ele>126</ele>
      </trkpt>
      <trkpt lat="45.13785" lon="4.80679">
        <ele>126</ele>
      </trkpt>
      <trkpt lat="45.13766" lon="4.80657">
        <ele>125</ele>
      </trkpt>
      <trkpt lat="45.1373" lon="4.80584">
        <ele>124</ele>
      </trkpt>
      <trkpt lat="45.13688" lon="4.80508">
        <ele>124</ele>
      </trkpt>
      <trkpt lat="45.13634" lon="4.80443">
        <ele>125</ele>
      </trkpt>
      <trkpt lat="45.13582" lon="4.804">
        <ele>126</ele>
      </trkpt>
      <trkpt lat="45.1355" lon="4.8038">
        <ele>127</ele>
      </trkpt>
      <trkpt lat="45.13528" lon="4.80362">
        <ele>127</ele>
      </trkpt>
      <trkpt lat="45.13508" lon="4.80332">
        <ele>129</ele>
      </trkpt>
      <trkpt lat="45.13495" lon="4.80314">
        <ele>128</ele>
      </trkpt>
      <trkpt lat="45.13483" lon="4.80305">
        <ele>129</ele>
      </trkpt>
      <trkpt lat="45.13456" lon="4.80295">
        <ele>129</ele>
      </trkpt>
      <trkpt lat="45.13424" lon="4.80296">
        <ele>128</ele>
      </trkpt>
      <trkpt lat="45.1341" lon="4.80286">
        <ele>126</ele>
      </trkpt>
      <trkpt lat="45.13393" lon="4.80274">
        <ele>126</ele>
      </trkpt>
      <trkpt lat="45.13376" lon="4.80269">
        <ele>125</ele>
      </trkpt>
      <trkpt lat="45.13362" lon="4.80268">
        <ele>125</ele>
      </trkpt>
      <trkpt lat="45.13324" lon="4.80268">
        <ele>124</ele>
      </trkpt>
      <trkpt lat="45.13288" lon="4.80259">
        <ele>124</ele>
      </trkpt>
      <trkpt lat="45.13242" lon="4.80256">
        <ele>124</ele>
      </trkpt>
      <trkpt lat="45.13208" lon="4.80248">
        <ele>131</ele>
      </trkpt>
      <trkpt lat="45.13186" lon="4.80245">
        <ele>129</ele>
      </trkpt>
      <trkpt lat="45.13169" lon="4.80247">
        <ele>126</ele>
      </trkpt>
      <trkpt lat="45.13155" lon="4.8025">
        <ele>128</ele>
      </trkpt>
      <trkpt lat="45.13139" lon="4.8025">
        <ele>124</ele>
      </trkpt>
      <trkpt lat="45.13114" lon="4.80245">
        <ele>131</ele>
      </trkpt>
      <trkpt lat="45.13012" lon="4.80227">
        <ele>129</ele>
      </trkpt>
      <trkpt lat="45.12934" lon="4.80212">
        <ele>127</ele>
      </trkpt>
      <trkpt lat="45.12861" lon="4.80198">
        <ele>126</ele>
      </trkpt>
      <trkpt lat="45.12838" lon="4.80187">
        <ele>127</ele>
      </trkpt>
      <trkpt lat="45.12813" lon="4.8018">
        <ele>127</ele>
      </trkpt>
      <trkpt lat="45.12787" lon="4.80176">
        <ele>126</ele>
      </trkpt>
      <trkpt lat="45.12757" lon="4.8017">
        <ele>127</ele>
      </trkpt>
      <trkpt lat="45.12724" lon="4.80167">
        <ele>126</ele>
      </trkpt>
      <trkpt lat="45.12703" lon="4.8017">
        <ele>126</ele>
      </trkpt>
      <trkpt lat="45.12679" lon="4.80167">
        <ele>126</ele>
      </trkpt>
      <trkpt lat="45.12628" lon="4.80152">
        <ele>130</ele>
      </trkpt>
      <trkpt lat="45.12544" lon="4.80137">
        <ele>127</ele>
      </trkpt>
      <trkpt lat="45.12509" lon="4.80141">
        <ele>126</ele>
      </trkpt>
      <trkpt lat="45.12499" lon="4.80137">
        <ele>125</ele>
      </trkpt>
      <trkpt lat="45.12484" lon="4.80126">
        <ele>126</ele>
      </trkpt>
      <trkpt lat="45.12441" lon="4.80115">
        <ele>126</ele>
      </trkpt>
      <trkpt lat="45.12422" lon="4.80107">
        <ele>126</ele>
      </trkpt>
      <trkpt lat="45.12407" lon="4.80104">
        <ele>126</ele>
      </trkpt>
      <trkpt lat="45.12385" lon="4.80106">
        <ele>125</ele>
      </trkpt>
      <trkpt lat="45.12363" lon="4.80099">
        <ele>125</ele>
      </trkpt>
      <trkpt lat="45.12326" lon="4.80094">
        <ele>125</ele>
      </trkpt>
      <trkpt lat="45.12299" lon="4.80095">
        <ele>125</ele>
      </trkpt>
      <trkpt lat="45.12233" lon="4.80104">
        <ele>126</ele>
      </trkpt>
      <trkpt lat="45.12209" lon="4.80116">
        <ele>126</ele>
      </trkpt>
      <trkpt lat="45.122" lon="4.8012">
        <ele>126</ele>
      </trkpt>
      <trkpt lat="45.12181" lon="4.80122">
        <ele>126</ele>
      </trkpt>
      <trkpt lat="45.12164" lon="4.80127">
        <ele>126</ele>
      </trkpt>
      <trkpt lat="45.1215" lon="4.80145">
        <ele>125</ele>
      </trkpt>
      <trkpt lat="45.12131" lon="4.80154">
        <ele>125</ele>
      </trkpt>
      <trkpt lat="45.12113" lon="4.80156">
        <ele>125</ele>
      </trkpt>
      <trkpt lat="45.12099" lon="4.80165">
        <ele>124</ele>
      </trkpt>
      <trkpt lat="45.12087" lon="4.80173">
        <ele>123</ele>
      </trkpt>
      <trkpt lat="45.12087" lon="4.80173">
        <ele>123</ele>
      </trkpt>
      <trkpt lat="45.12077" lon="4.80204">
        <ele>123</ele>
      </trkpt>
      <trkpt lat="45.12071" lon="4.80225">
        <ele>123</ele>
      </trkpt>
      <trkpt lat="45.12061" lon="4.80266">
        <ele>122</ele>
      </trkpt>
      <trkpt lat="45.12051" lon="4.80323">
        <ele>122</ele>
      </trkpt>
      <trkpt lat="45.12051" lon="4.80344">
        <ele>122</ele>
      </trkpt>
      <trkpt lat="45.12046" lon="4.80365">
        <ele>122</ele>
      </trkpt>
      <trkpt lat="45.1202" lon="4.80399">
        <ele>123</ele>
      </trkpt>
      <trkpt lat="45.11999" lon="4.80431">
        <ele>123</ele>
      </trkpt>
      <trkpt lat="45.11983" lon="4.80462">
        <ele>122</ele>
      </trkpt>
      <trkpt lat="45.11958" lon="4.80492">
        <ele>122</ele>
      </trkpt>
      <trkpt lat="45.1192" lon="4.80539">
        <ele>121</ele>
      </trkpt>
      <trkpt lat="45.11856" lon="4.80602">
        <ele>121</ele>
      </trkpt>
      <trkpt lat="45.11806" lon="4.80645">
        <ele>122</ele>
      </trkpt>
      <trkpt lat="45.11775" lon="4.80663">
        <ele>123</ele>
      </trkpt>
      <trkpt lat="45.11658" lon="4.80748">
        <ele>123</ele>
      </trkpt>
      <trkpt lat="45.11616" lon="4.80779">
        <ele>123</ele>
      </trkpt>
      <trkpt lat="45.11583" lon="4.80809">
        <ele>124</ele>
      </trkpt>
      <trkpt lat="45.1156" lon="4.80833">
        <ele>124</ele>
      </trkpt>
      <trkpt lat="45.11492" lon="4.8089">
        <ele>123</ele>
      </trkpt>
      <trkpt lat="45.11438" lon="4.80938">
        <ele>124</ele>
      </trkpt>
      <trkpt lat="45.1141" lon="4.80962">
        <ele>124</ele>
      </trkpt>
      <trkpt lat="45.11382" lon="4.80986">
        <ele>124</ele>
      </trkpt>
      <trkpt lat="45.11373" lon="4.80997">
        <ele>124</ele>
      </trkpt>
      <trkpt lat="45.1136" lon="4.81014">
        <ele>124</ele>
      </trkpt>
      <trkpt lat="45.11348" lon="4.81034">
        <ele>124</ele>
      </trkpt>
      <trkpt lat="45.11331" lon="4.81046">
        <ele>123</ele>
      </trkpt>
      <trkpt lat="45.11316" lon="4.81052">
        <ele>123</ele>
      </trkpt>
      <trkpt lat="45.11254" lon="4.81083">
        <ele>123</ele>
      </trkpt>
      <trkpt lat="45.11223" lon="4.81114">
        <ele>123</ele>
      </trkpt>
      <trkpt lat="45.11201" lon="4.81142">
        <ele>123</ele>
      </trkpt>
      <trkpt lat="45.11182" lon="4.8118">
        <ele>122</ele>
      </trkpt>
      <trkpt lat="45.11169" lon="4.8121">
        <ele>122</ele>
      </trkpt>
      <trkpt lat="45.11163" lon="4.81219">
        <ele>121</ele>
      </trkpt>
      <trkpt lat="45.11153" lon="4.81226">
        <ele>121</ele>
      </trkpt>
      <trkpt lat="45.11133" lon="4.8123">
        <ele>121</ele>
      </trkpt>
      <trkpt lat="45.11069" lon="4.81242">
        <ele>121</ele>
      </trkpt>
      <trkpt lat="45.11041" lon="4.81249">
        <ele>121</ele>
      </trkpt>
      <trkpt lat="45.11014" lon="4.81263">
        <ele>121</ele>
      </trkpt>
      <trkpt lat="45.10987" lon="4.81287">
        <ele>121</ele>
      </trkpt>
      <trkpt lat="45.10957" lon="4.81316">
        <ele>121</ele>
      </trkpt>
      <trkpt lat="45.10932" lon="4.81356">
        <ele>121</ele>
      </trkpt>
      <trkpt lat="45.10911" lon="4.81406">
        <ele>121</ele>
      </trkpt>
      <trkpt lat="45.10881" lon="4.81467">
        <ele>121</ele>
      </trkpt>
      <trkpt lat="45.10821" lon="4.8158">
        <ele>122</ele>
      </trkpt>
      <trkpt lat="45.10786" lon="4.81649">
        <ele>121</ele>
      </trkpt>
      <trkpt lat="45.10772" lon="4.81672">
        <ele>122</ele>
      </trkpt>
      <trkpt lat="45.10748" lon="4.81701">
        <ele>123</ele>
      </trkpt>
      <trkpt lat="45.1072" lon="4.81731">
        <ele>123</ele>
      </trkpt>
      <trkpt lat="45.10637" lon="4.81809">
        <ele>121</ele>
      </trkpt>
      <trkpt lat="45.10601" lon="4.81847">
        <ele>122</ele>
      </trkpt>
      <trkpt lat="45.10553" lon="4.8191">
        <ele>122</ele>
      </trkpt>
      <trkpt lat="45.10514" lon="4.81946">
        <ele>122</ele>
      </trkpt>
      <trkpt lat="45.10486" lon="4.8197">
        <ele>122</ele>
      </trkpt>
      <trkpt lat="45.10411" lon="4.82036">
        <ele>122</ele>
      </trkpt>
      <trkpt lat="45.10357" lon="4.82104">
        <ele>122</ele>
      </trkpt>
      <trkpt lat="45.10351" lon="4.82118">
        <ele>122</ele>
      </trkpt>
      <trkpt lat="45.10351" lon="4.82118">
        <ele>122</ele>
      </trkpt>
      <trkpt lat="45.10349" lon="4.8213">
        <ele>123</ele>
      </trkpt>
      <trkpt lat="45.10343" lon="4.82146">
        <ele>123</ele>
      </trkpt>
      <trkpt lat="45.10306" lon="4.82188">
        <ele>124</ele>
      </trkpt>
      <trkpt lat="45.10279" lon="4.8222">
        <ele>124</ele>
      </trkpt>
      <trkpt lat="45.1027" lon="4.82231">
        <ele>124</ele>
      </trkpt>
      <trkpt lat="45.10261" lon="4.8225">
        <ele>125</ele>
      </trkpt>
      <trkpt lat="45.10254" lon="4.82279">
        <ele>125</ele>
      </trkpt>
      <trkpt lat="45.10248" lon="4.82293">
        <ele>126</ele>
      </trkpt>
      <trkpt lat="45.10185" lon="4.8232">
        <ele>126</ele>
      </trkpt>
      <trkpt lat="45.10135" lon="4.82347">
        <ele>126</ele>
      </trkpt>
      <trkpt lat="45.10104" lon="4.82379">
        <ele>125</ele>
      </trkpt>
      <trkpt lat="45.10031" lon="4.82418">
        <ele>123</ele>
      </trkpt>
      <trkpt lat="45.10007" lon="4.82425">
        <ele>122</ele>
      </trkpt>
      <trkpt lat="45.09962" lon="4.82445">
        <ele>122</ele>
      </trkpt>
      <trkpt lat="45.09863" lon="4.82484">
        <ele>123</ele>
      </trkpt>
      <trkpt lat="45.09749" lon="4.82538">
        <ele>123</ele>
      </trkpt>
      <trkpt lat="45.09715" lon="4.82555">
        <ele>123</ele>
      </trkpt>
      <trkpt lat="45.09674" lon="4.82577">
        <ele>123</ele>
      </trkpt>
      <trkpt lat="45.09648" lon="4.82587">
        <ele>123</ele>
      </trkpt>
      <trkpt lat="45.09642" lon="4.826">
        <ele>123</ele>
      </trkpt>
      <trkpt lat="45.09636" lon="4.82624">
        <ele>123</ele>
      </trkpt>
      <trkpt lat="45.09624" lon="4.82657">
        <ele>123</ele>
      </trkpt>
      <trkpt lat="45.09608" lon="4.82695">
        <ele>125</ele>
      </trkpt>
      <trkpt lat="45.09592" lon="4.82728">
        <ele>125</ele>
      </trkpt>
      <trkpt lat="45.09561" lon="4.82758">
        <ele>123</ele>
      </trkpt>
      <trkpt lat="45.09517" lon="4.828">
        <ele>123</ele>
      </trkpt>
      <trkpt lat="45.09492" lon="4.82827">
        <ele>122</ele>
      </trkpt>
      <trkpt lat="45.09464" lon="4.82855">
        <ele>122</ele>
      </trkpt>
      <trkpt lat="45.09451" lon="4.82858">
        <ele>122</ele>
      </trkpt>
      <trkpt lat="45.09412" lon="4.8287">
        <ele>122</ele>
      </trkpt>
      <trkpt lat="45.09338" lon="4.82884">
        <ele>122</ele>
      </trkpt>
      <trkpt lat="45.09253" lon="4.82919">
        <ele>123</ele>
      </trkpt>
      <trkpt lat="45.09232" lon="4.82927">
        <ele>122</ele>
      </trkpt>
      <trkpt lat="45.092" lon="4.82945">
        <ele>122</ele>
      </trkpt>
      <trkpt lat="45.09173" lon="4.82966">
        <ele>122</ele>
      </trkpt>
      <trkpt lat="45.09156" lon="4.82974">
        <ele>122</ele>
      </trkpt>
      <trkpt lat="45.09067" lon="4.82995">
        <ele>120</ele>
      </trkpt>
      <trkpt lat="45.09027" lon="4.83006">
        <ele>121</ele>
      </trkpt>
      <trkpt lat="45.08999" lon="4.8302">
        <ele>121</ele>
      </trkpt>
      <trkpt lat="45.08971" lon="4.83034">
        <ele>121</ele>
      </trkpt>
      <trkpt lat="45.08958" lon="4.83038">
        <ele>121</ele>
      </trkpt>
      <trkpt lat="45.0889" lon="4.8304">
        <ele>121</ele>
      </trkpt>
      <trkpt lat="45.08855" lon="4.83047">
        <ele>121</ele>
      </trkpt>
      <trkpt lat="45.08819" lon="4.83049">
        <ele>121</ele>
      </trkpt>
      <trkpt lat="45.08763" lon="4.83045">
        <ele>122</ele>
      </trkpt>
      <trkpt lat="45.087" lon="4.83032">
        <ele>122</ele>
      </trkpt>
      <trkpt lat="45.08616" lon="4.83002">
        <ele>121</ele>
      </trkpt>
      <trkpt lat="45.08568" lon="4.82979">
        <ele>122</ele>
      </trkpt>
      <trkpt lat="45.0855" lon="4.8297">
        <ele>122</ele>
      </trkpt>
      <trkpt lat="45.08515" lon="4.82947">
        <ele>122</ele>
      </trkpt>
      <trkpt lat="45.08496" lon="4.82931">
        <ele>122</ele>
      </trkpt>
      <trkpt lat="45.08452" lon="4.82888">
        <ele>124</ele>
      </trkpt>
      <trkpt lat="45.08436" lon="4.82872">
        <ele>124</ele>
      </trkpt>
      <trkpt lat="45.08414" lon="4.82857">
        <ele>124</ele>
      </trkpt>
      <trkpt lat="45.08379" lon="4.82838">
        <ele>124</ele>
      </trkpt>
      <trkpt lat="45.08347" lon="4.82818">
        <ele>122</ele>
      </trkpt>
      <trkpt lat="45.08329" lon="4.82807">
        <ele>122</ele>
      </trkpt>
      <trkpt lat="45.08251" lon="4.82765">
        <ele>122</ele>
      </trkpt>
      <trkpt lat="45.08227" lon="4.82748">
        <ele>121</ele>
      </trkpt>
      <trkpt lat="45.08194" lon="4.82724">
        <ele>121</ele>
      </trkpt>
      <trkpt lat="45.08161" lon="4.82702">
        <ele>120</ele>
      </trkpt>
      <trkpt lat="45.08134" lon="4.82684">
        <ele>120</ele>
      </trkpt>
      <trkpt lat="45.08095" lon="4.82671">
        <ele>121</ele>
      </trkpt>
      <trkpt lat="45.08074" lon="4.82664">
        <ele>122</ele>
      </trkpt>
      <trkpt lat="45.08059" lon="4.82657">
        <ele>123</ele>
      </trkpt>
      <trkpt lat="45.08051" lon="4.8264">
        <ele>123</ele>
      </trkpt>
      <trkpt lat="45.08046" lon="4.82634">
        <ele>123</ele>
      </trkpt>
      <trkpt lat="45.08036" lon="4.82626">
        <ele>123</ele>
      </trkpt>
      <trkpt lat="45.08022" lon="4.8262">
        <ele>123</ele>
      </trkpt>
      <trkpt lat="45.07993" lon="4.82628">
        <ele>123</ele>
      </trkpt>
      <trkpt lat="45.07956" lon="4.82623">
        <ele>122</ele>
      </trkpt>
      <trkpt lat="45.07849" lon="4.82612">
        <ele>121</ele>
      </trkpt>
      <trkpt lat="45.07758" lon="4.82604">
        <ele>122</ele>
      </trkpt>
      <trkpt lat="45.07724" lon="4.82579">
        <ele>125</ele>
      </trkpt>
      <trkpt lat="45.07689" lon="4.82556">
        <ele>125</ele>
      </trkpt>
      <trkpt lat="45.07658" lon="4.8252">
        <ele>124</ele>
      </trkpt>
      <trkpt lat="45.07638" lon="4.82481">
        <ele>123</ele>
      </trkpt>
      <trkpt lat="45.0762" lon="4.82417">
        <ele>122</ele>
      </trkpt>
      <trkpt lat="45.07621" lon="4.8236">
        <ele>120</ele>
      </trkpt>
      <trkpt lat="45.07639" lon="4.82315">
        <ele>119</ele>
      </trkpt>
      <trkpt lat="45.07655" lon="4.82289">
        <ele>119</ele>
      </trkpt>
      <trkpt lat="45.07664" lon="4.82277">
        <ele>119</ele>
      </trkpt>
      <trkpt lat="45.07674" lon="4.82258">
        <ele>120</ele>
      </trkpt>
      <trkpt lat="45.07681" lon="4.82242">
        <ele>120</ele>
      </trkpt>
      <trkpt lat="45.0768" lon="4.82223">
        <ele>120</ele>
      </trkpt>
      <trkpt lat="45.07671" lon="4.82185">
        <ele>119</ele>
      </trkpt>
      <trkpt lat="45.07631" lon="4.82034">
        <ele>119</ele>
      </trkpt>
      <trkpt lat="45.07605" lon="4.81939">
        <ele>120</ele>
      </trkpt>
      <trkpt lat="45.07572" lon="4.81813">
        <ele>120</ele>
      </trkpt>
      <trkpt lat="45.07545" lon="4.81713">
        <ele>121</ele>
      </trkpt>
      <trkpt lat="45.07533" lon="4.81667">
        <ele>121</ele>
      </trkpt>
      <trkpt lat="45.0753" lon="4.81655">
        <ele>121</ele>
      </trkpt>
      <trkpt lat="45.07527" lon="4.81651">
        <ele>121</ele>
      </trkpt>
      <trkpt lat="45.07527" lon="4.81651">
        <ele>121</ele>
      </trkpt>
      <trkpt lat="45.07523" lon="4.81652">
        <ele>121</ele>
      </trkpt>
      <trkpt lat="45.07477" lon="4.81685">
        <ele>121</ele>
      </trkpt>
      <trkpt lat="45.0742" lon="4.81728">
        <ele>122</ele>
      </trkpt>
      <trkpt lat="45.07403" lon="4.81744">
        <ele>123</ele>
      </trkpt>
      <trkpt lat="45.07385" lon="4.81764">
        <ele>122</ele>
      </trkpt>
      <trkpt lat="45.07376" lon="4.81782">
        <ele>122</ele>
      </trkpt>
      <trkpt lat="45.07361" lon="4.81822">
        <ele>122</ele>
      </trkpt>
      <trkpt lat="45.07349" lon="4.81858">
        <ele>122</ele>
      </trkpt>
      <trkpt lat="45.0734" lon="4.81898">
        <ele>123</ele>
      </trkpt>
      <trkpt lat="45.07321" lon="4.81963">
        <ele>124</ele>
      </trkpt>
      <trkpt lat="45.07271" lon="4.82119">
        <ele>124</ele>
      </trkpt>
      <trkpt lat="45.0726" lon="4.82159">
        <ele>125</ele>
      </trkpt>
      <trkpt lat="45.07258" lon="4.82173">
        <ele>125</ele>
      </trkpt>
      <trkpt lat="45.07258" lon="4.82185">
        <ele>124</ele>
      </trkpt>
      <trkpt lat="45.07262" lon="4.82197">
        <ele>124</ele>
      </trkpt>
      <trkpt lat="45.07268" lon="4.82207">
        <ele>124</ele>
      </trkpt>
      <trkpt lat="45.07275" lon="4.82221">
        <ele>124</ele>
      </trkpt>
      <trkpt lat="45.07283" lon="4.82244">
        <ele>124</ele>
      </trkpt>
      <trkpt lat="45.07289" lon="4.82277">
        <ele>124</ele>
      </trkpt>
      <trkpt lat="45.07292" lon="4.82307">
        <ele>124</ele>
      </trkpt>
      <trkpt lat="45.07293" lon="4.82347">
        <ele>124</ele>
      </trkpt>
      <trkpt lat="45.07292" lon="4.82381">
        <ele>124</ele>
      </trkpt>
      <trkpt lat="45.07289" lon="4.82418">
        <ele>123</ele>
      </trkpt>
      <trkpt lat="45.07282" lon="4.82459">
        <ele>123</ele>
      </trkpt>
      <trkpt lat="45.07274" lon="4.825">
        <ele>122</ele>
      </trkpt>
      <trkpt lat="45.07264" lon="4.82536">
        <ele>121</ele>
      </trkpt>
      <trkpt lat="45.0725" lon="4.82585">
        <ele>121</ele>
      </trkpt>
      <trkpt lat="45.07233" lon="4.82631">
        <ele>122</ele>
      </trkpt>
      <trkpt lat="45.07217" lon="4.82668">
        <ele>122</ele>
      </trkpt>
      <trkpt lat="45.07189" lon="4.82719">
        <ele>122</ele>
      </trkpt>
      <trkpt lat="45.07166" lon="4.82755">
        <ele>123</ele>
      </trkpt>
      <trkpt lat="45.07143" lon="4.82786">
        <ele>123</ele>
      </trkpt>
      <trkpt lat="45.07114" lon="4.8282">
        <ele>123</ele>
      </trkpt>
      <trkpt lat="45.07089" lon="4.82846">
        <ele>122</ele>
      </trkpt>
      <trkpt lat="45.07084" lon="4.82851">
        <ele>122</ele>
      </trkpt>
      <trkpt lat="45.07082" lon="4.82858">
        <ele>122</ele>
      </trkpt>
      <trkpt lat="45.07084" lon="4.82863">
        <ele>122</ele>
      </trkpt>
      <trkpt lat="45.07086" lon="4.82865">
        <ele>122</ele>
      </trkpt>
      <trkpt lat="45.0711" lon="4.82896">
        <ele>121</ele>
      </trkpt>
      <trkpt lat="45.07115" lon="4.82902">
        <ele>121</ele>
      </trkpt>
      <trkpt lat="45.07116" lon="4.82907">
        <ele>121</ele>
      </trkpt>
      <trkpt lat="45.07114" lon="4.82914">
        <ele>121</ele>
      </trkpt>
      <trkpt lat="45.07107" lon="4.82922">
        <ele>120</ele>
      </trkpt>
      <trkpt lat="45.07075" lon="4.82952">
        <ele>121</ele>
      </trkpt>
      <trkpt lat="45.07065" lon="4.82957">
        <ele>121</ele>
      </trkpt>
      <trkpt lat="45.07054" lon="4.82962">
        <ele>121</ele>
      </trkpt>
      <trkpt lat="45.07045" lon="4.82971">
        <ele>120</ele>
      </trkpt>
      <trkpt lat="45.07036" lon="4.82983">
        <ele>120</ele>
      </trkpt>
      <trkpt lat="45.06995" lon="4.83035">
        <ele>120</ele>
      </trkpt>
      <trkpt lat="45.0696" lon="4.83091">
        <ele>120</ele>
      </trkpt>
      <trkpt lat="45.06923" lon="4.83159">
        <ele>120</ele>
      </trkpt>
      <trkpt lat="45.06907" lon="4.83189">
        <ele>123</ele>
      </trkpt>
      <trkpt lat="45.06879" lon="4.83243">
        <ele>124</ele>
      </trkpt>
      <trkpt lat="45.06865" lon="4.83291">
        <ele>123</ele>
      </trkpt>
      <trkpt lat="45.06839" lon="4.83344">
        <ele>123</ele>
      </trkpt>
      <trkpt lat="45.0681" lon="4.83393">
        <ele>125</ele>
      </trkpt>
      <trkpt lat="45.06777" lon="4.83463">
        <ele>124</ele>
      </trkpt>
      <trkpt lat="45.06697" lon="4.83647">
        <ele>121</ele>
      </trkpt>
      <trkpt lat="45.06686" lon="4.83671">
        <ele>120</ele>
      </trkpt>
      <trkpt lat="45.06591" lon="4.83889">
        <ele>117</ele>
      </trkpt>
      <trkpt lat="45.06569" lon="4.83943">
        <ele>118</ele>
      </trkpt>
      <trkpt lat="45.06553" lon="4.83963">
        <ele>118</ele>
      </trkpt>
      <trkpt lat="45.06545" lon="4.8398">
        <ele>119</ele>
      </trkpt>
      <trkpt lat="45.06538" lon="4.84002">
        <ele>119</ele>
      </trkpt>
      <trkpt lat="45.06537" lon="4.84023">
        <ele>118</ele>
      </trkpt>
    </trkseg>
  </trk>
</gpx>